Time,TemperatureF,DewpointF,PressureIn,WindDirection,WindDirectionDegrees,WindSpeedMPH,WindSpeedGustMPH,Humidity,HourlyPrecipIn,Conditions,Clouds,dailyrainin,SoftwareType,DateUTC
2013-03-08 00:02:00,66.0,64.0,30.10,South,180,5.0,6.0,92,0.00,,,0.00,TxWx,2013-03-08 06:02:00,
2013-03-08 00:04:00,66.0,64.0,30.10,SE,135,10.0,11.0,92,0.00,,,0.00,TxWx,2013-03-08 06:04:00,
2013-03-08 00:07:00,66.0,64.0,30.09,SE,135,10.0,13.0,92,0.00,,,0.00,TxWx,2013-03-08 06:07:00,
2013-03-08 00:09:00,66.0,64.0,30.09,SE,135,8.0,8.0,92,0.00,,,0.00,TxWx,2013-03-08 06:09:00,
2013-03-08 00:14:00,66.0,64.0,30.09,South,180,7.0,8.0,93,0.00,,,0.00,TxWx,2013-03-08 06:14:00,
2013-03-08 00:15:00,66.0,64.0,30.09,SE,135,11.0,11.0,93,0.00,,,0.00,TxWx,2013-03-08 06:15:00,
2013-03-08 00:16:00,66.0,64.0,30.09,SE,135,11.0,11.0,93,0.00,,,0.00,TxWx,2013-03-08 06:16:00,
2013-03-08 00:21:00,66.0,64.0,30.08,SSE,157,5.0,6.0,93,0.00,,,0.00,TxWx,2013-03-08 06:21:00,
2013-03-08 00:22:00,66.0,64.0,30.08,SSE,157,8.0,9.0,93,0.00,,,0.00,TxWx,2013-03-08 06:22:00,
2013-03-08 00:26:00,66.0,64.0,30.08,SE,135,9.0,10.0,93,0.00,,,0.00,TxWx,2013-03-08 06:26:00,
2013-03-08 00:27:00,66.0,64.0,30.08,SE,135,9.0,9.0,93,0.00,,,0.00,TxWx,2013-03-08 06:27:00,
2013-03-08 00:32:00,66.0,64.0,30.08,SSW,202,10.0,11.0,94,0.00,,,0.00,TxWx,2013-03-08 06:32:00,
2013-03-08 00:33:00,66.0,64.0,30.08,SSE,157,8.0,8.0,94,0.00,,,0.00,TxWx,2013-03-08 06:33:00,
2013-03-08 00:38:00,66.0,64.0,30.09,ESE,112,6.0,6.0,94,0.00,,,0.00,TxWx,2013-03-08 06:38:00,
2013-03-08 00:39:00,66.0,64.0,30.09,SE,135,8.0,8.0,94,0.00,,,0.00,TxWx,2013-03-08 06:39:00,
2013-03-08 00:40:00,66.0,64.0,30.09,SE,135,10.0,10.0,94,0.00,,,0.00,TxWx,2013-03-08 06:40:00,
2013-03-08 00:43:00,66.0,64.0,30.09,SSE,157,11.0,11.0,94,0.00,,,0.00,TxWx,2013-03-08 06:43:00,
2013-03-08 00:45:00,66.0,64.0,30.09,SSE,157,8.0,11.0,94,0.00,,,0.00,TxWx,2013-03-08 06:45:00,
2013-03-08 00:46:00,66.0,64.0,30.09,SSE,157,8.0,10.0,94,0.00,,,0.00,TxWx,2013-03-08 06:46:00,
2013-03-08 00:50:00,66.0,64.0,30.09,SW,225,5.0,5.0,95,0.00,,,0.00,TxWx,2013-03-08 06:50:00,
2013-03-08 00:51:00,66.0,64.0,30.08,SSE,157,8.0,8.0,95,0.00,,,0.00,TxWx,2013-03-08 06:51:00,
2013-03-08 00:53:00,66.0,64.0,30.09,SSE,157,6.0,8.0,95,0.00,,,0.00,TxWx,2013-03-08 06:53:00,
2013-03-08 00:57:00,66.0,64.0,30.09,SE,135,8.0,8.0,95,0.00,,,0.00,TxWx,2013-03-08 06:57:00,
2013-03-08 00:58:00,66.0,64.0,30.09,SSE,157,6.0,6.0,95,0.00,,,0.00,TxWx,2013-03-08 06:58:00,
2013-03-08 00:59:00,66.0,64.0,30.09,SSE,157,7.0,7.0,95,0.00,,,0.00,TxWx,2013-03-08 06:59:00,
2013-03-08 01:02:00,66.0,64.0,30.09,SE,135,8.0,8.0,95,0.00,,,0.00,TxWx,2013-03-08 07:02:00,
2013-03-08 01:05:00,66.0,64.0,30.09,SE,135,4.0,5.0,95,0.00,,,0.00,TxWx,2013-03-08 07:05:00,
2013-03-08 01:08:00,66.0,64.0,30.09,SE,135,6.0,6.0,95,0.00,,,0.00,TxWx,2013-03-08 07:08:00,
2013-03-08 01:10:00,66.0,64.0,30.09,SSE,157,5.0,5.0,95,0.00,,,0.00,TxWx,2013-03-08 07:10:00,
2013-03-08 01:11:00,66.0,64.0,30.08,SSE,157,10.0,10.0,95,0.00,,,0.00,TxWx,2013-03-08 07:11:00,
2013-03-08 01:14:00,66.0,64.0,30.09,South,180,6.0,8.0,95,0.00,,,0.00,TxWx,2013-03-08 07:14:00,
2013-03-08 01:16:00,66.0,64.0,30.09,SSE,157,8.0,8.0,95,0.00,,,0.00,TxWx,2013-03-08 07:16:00,
2013-03-08 01:17:00,67.0,65.0,30.09,SSE,157,9.0,9.0,95,0.00,,,0.00,TxWx,2013-03-08 07:17:00,
2013-03-08 01:20:00,67.0,65.0,30.08,SSE,157,10.0,10.0,95,0.00,,,0.00,TxWx,2013-03-08 07:20:00,
2013-03-08 01:23:00,67.0,65.0,30.08,SE,135,8.0,8.0,94,0.00,,,0.00,TxWx,2013-03-08 07:23:00,
2013-03-08 01:25:00,67.0,65.0,30.08,SSW,202,6.0,6.0,94,0.00,,,0.00,TxWx,2013-03-08 07:25:00,
2013-03-08 01:28:00,67.0,65.0,30.07,SSE,157,8.0,9.0,94,0.00,,,0.00,TxWx,2013-03-08 07:28:00,
2013-03-08 01:30:00,67.0,65.0,30.07,SE,135,9.0,10.0,94,0.00,,,0.00,TxWx,2013-03-08 07:30:00,
2013-03-08 01:31:00,67.0,65.0,30.07,SE,135,5.0,5.0,94,0.00,,,0.00,TxWx,2013-03-08 07:31:00,
2013-03-08 01:34:00,67.0,65.0,30.07,SSE,157,10.0,11.0,94,0.00,,,0.00,TxWx,2013-03-08 07:34:00,
2013-03-08 01:36:00,67.0,65.0,30.07,South,180,5.0,5.0,94,0.00,,,0.00,TxWx,2013-03-08 07:36:00,
2013-03-08 01:39:00,67.0,65.0,30.07,SSW,202,7.0,9.0,94,0.00,,,0.00,TxWx,2013-03-08 07:39:00,
2013-03-08 01:41:00,67.0,65.0,30.07,SSE,157,11.0,12.0,94,0.00,,,0.00,TxWx,2013-03-08 07:41:00,
2013-03-08 01:43:00,67.0,65.0,30.07,SSE,157,10.0,10.0,94,0.00,,,0.00,TxWx,2013-03-08 07:43:00,
2013-03-08 01:45:00,67.0,65.0,30.07,South,180,7.0,8.0,94,0.00,,,0.00,TxWx,2013-03-08 07:45:00,
2013-03-08 01:48:00,67.0,65.0,30.07,SSE,157,5.0,6.0,94,0.00,,,0.00,TxWx,2013-03-08 07:48:00,
2013-03-08 01:49:00,67.0,65.0,30.07,SSE,157,8.0,8.0,94,0.00,,,0.00,TxWx,2013-03-08 07:49:00,
2013-03-08 01:50:00,67.0,65.0,30.07,SSE,157,5.0,5.0,94,0.00,,,0.00,TxWx,2013-03-08 07:50:00,
2013-03-08 01:53:00,67.0,65.0,30.06,South,180,6.0,6.0,94,0.00,,,0.00,TxWx,2013-03-08 07:53:00,
2013-03-08 01:55:00,67.0,65.0,30.06,SSE,157,13.0,13.0,94,0.00,,,0.00,TxWx,2013-03-08 07:55:00,
2013-03-08 01:58:00,67.0,65.0,30.06,SSE,157,9.0,9.0,94,0.00,,,0.00,TxWx,2013-03-08 07:58:00,
2013-03-08 02:00:00,67.0,65.0,30.06,SSE,157,13.0,13.0,94,0.00,,,0.00,TxWx,2013-03-08 08:00:00,
2013-03-08 02:02:00,67.0,65.0,30.06,SSE,157,6.0,6.0,94,0.00,,,0.00,TxWx,2013-03-08 08:02:00,
2013-03-08 02:04:00,67.0,65.0,30.06,South,180,6.0,6.0,94,0.00,,,0.00,TxWx,2013-03-08 08:04:00,
2013-03-08 02:05:00,67.0,65.0,30.06,SE,135,6.0,6.0,94,0.00,,,0.00,TxWx,2013-03-08 08:05:00,
2013-03-08 02:07:00,67.0,65.0,30.06,SSE,157,10.0,10.0,94,0.00,,,0.00,TxWx,2013-03-08 08:07:00,
2013-03-08 02:10:00,67.0,65.0,30.06,SSE,157,5.0,7.0,94,0.00,,,0.00,TxWx,2013-03-08 08:10:00,
2013-03-08 02:12:00,67.0,65.0,30.06,SSE,157,10.0,11.0,94,0.00,,,0.00,TxWx,2013-03-08 08:12:00,
2013-03-08 02:15:00,67.0,65.0,30.06,SSE,157,7.0,7.0,94,0.00,,,0.00,TxWx,2013-03-08 08:15:00,
2013-03-08 02:16:00,67.0,65.0,30.06,SSE,157,5.0,6.0,94,0.00,,,0.00,TxWx,2013-03-08 08:16:00,
2013-03-08 02:17:00,67.0,65.0,30.06,SSE,157,8.0,10.0,94,0.00,,,0.00,TxWx,2013-03-08 08:17:00,
2013-03-08 02:21:00,67.0,65.0,30.06,SE,135,8.0,8.0,94,0.00,,,0.00,TxWx,2013-03-08 08:21:00,
2013-03-08 02:22:00,67.0,65.0,30.06,South,180,8.0,8.0,94,0.00,,,0.00,TxWx,2013-03-08 08:22:00,
2013-03-08 02:25:00,67.0,65.0,30.06,SE,135,9.0,9.0,94,0.00,,,0.00,TxWx,2013-03-08 08:25:00,
2013-03-08 02:27:00,67.0,65.0,30.06,SE,135,6.0,6.0,94,0.00,,,0.00,TxWx,2013-03-08 08:27:00,
2013-03-08 02:28:00,67.0,65.0,30.06,SSE,157,5.0,5.0,94,0.00,,,0.00,TxWx,2013-03-08 08:28:00,
2013-03-08 02:30:00,67.0,65.0,30.06,SSE,157,6.0,6.0,94,0.00,,,0.00,TxWx,2013-03-08 08:30:00,
2013-03-08 02:33:00,67.0,65.0,30.06,SSW,202,9.0,9.0,94,0.00,,,0.00,TxWx,2013-03-08 08:33:00,
2013-03-08 02:34:00,67.0,65.0,30.05,South,180,8.0,8.0,94,0.00,,,0.00,TxWx,2013-03-08 08:34:00,
2013-03-08 02:36:00,67.0,65.0,30.05,SSE,157,5.0,6.0,94,0.00,,,0.00,TxWx,2013-03-08 08:36:00,
2013-03-08 02:39:00,67.0,65.0,30.05,SE,135,7.0,10.0,94,0.00,,,0.00,TxWx,2013-03-08 08:39:00,
2013-03-08 02:40:00,66.0,64.0,30.05,SE,135,8.0,10.0,94,0.00,,,0.00,TxWx,2013-03-08 08:40:00,
2013-03-08 02:42:00,66.0,64.0,30.05,SE,135,4.0,5.0,94,0.00,,,0.00,TxWx,2013-03-08 08:42:00,
2013-03-08 02:44:00,66.0,64.0,30.05,SE,135,5.0,5.0,94,0.00,,,0.00,TxWx,2013-03-08 08:44:00,
2013-03-08 02:48:00,66.0,64.0,30.05,South,180,8.0,8.0,95,0.00,,,0.00,TxWx,2013-03-08 08:48:00,
2013-03-08 02:50:00,66.0,64.0,30.05,SE,135,5.0,5.0,95,0.00,,,0.00,TxWx,2013-03-08 08:50:00,
2013-03-08 02:52:00,66.0,64.0,30.05,SSE,157,6.0,6.0,95,0.00,,,0.00,TxWx,2013-03-08 08:52:00,
2013-03-08 02:54:00,66.0,64.0,30.05,SE,135,5.0,5.0,95,0.00,,,0.00,TxWx,2013-03-08 08:54:00,
2013-03-08 02:55:00,66.0,64.0,30.05,SSW,202,6.0,6.0,95,0.00,,,0.00,TxWx,2013-03-08 08:55:00,
2013-03-08 02:58:00,66.0,64.0,30.05,SSE,157,5.0,6.0,95,0.00,,,0.00,TxWx,2013-03-08 08:58:00,
2013-03-08 02:59:00,67.0,65.0,30.05,SE,135,5.0,5.0,95,0.00,,,0.00,TxWx,2013-03-08 08:59:00,
2013-03-08 03:04:00,67.0,65.0,30.05,SE,135,6.0,6.0,95,0.00,,,0.00,TxWx,2013-03-08 09:04:00,
2013-03-08 03:10:00,67.0,65.0,30.04,SSE,157,12.0,12.0,95,0.00,,,0.00,TxWx,2013-03-08 09:10:00,
2013-03-08 03:15:00,67.0,65.0,30.04,SE,135,11.0,11.0,95,0.00,,,0.00,TxWx,2013-03-08 09:15:00,
2013-03-08 03:16:00,67.0,65.0,30.04,SE,135,7.0,8.0,95,0.00,,,0.00,TxWx,2013-03-08 09:16:00,
2013-03-08 03:17:00,67.0,65.0,30.04,SE,135,5.0,5.0,95,0.00,,,0.00,TxWx,2013-03-08 09:17:00,
2013-03-08 03:21:00,67.0,65.0,30.04,SE,135,9.0,10.0,95,0.00,,,0.00,TxWx,2013-03-08 09:21:00,
2013-03-08 03:22:00,67.0,65.0,30.04,SE,135,10.0,10.0,95,0.00,,,0.00,TxWx,2013-03-08 09:22:00,
2013-03-08 03:27:00,67.0,65.0,30.04,SE,135,3.0,3.0,95,0.00,,,0.00,TxWx,2013-03-08 09:27:00,
2013-03-08 03:28:00,67.0,65.0,30.04,SSW,202,3.0,4.0,95,0.00,,,0.00,TxWx,2013-03-08 09:28:00,
2013-03-08 03:32:00,67.0,65.0,30.05,ESE,112,5.0,5.0,95,0.00,,,0.00,TxWx,2013-03-08 09:32:00,
2013-03-08 03:33:00,67.0,65.0,30.05,SSE,157,7.0,7.0,95,0.00,,,0.00,TxWx,2013-03-08 09:33:00,
2013-03-08 03:38:00,67.0,65.0,30.04,SSE,157,6.0,6.0,95,0.00,,,0.00,TxWx,2013-03-08 09:38:00,
2013-03-08 03:39:00,67.0,65.0,30.04,SSE,157,6.0,6.0,95,0.00,,,0.00,TxWx,2013-03-08 09:39:00,
2013-03-08 03:43:00,67.0,66.0,30.03,SSE,157,10.0,10.0,95,0.00,,,0.00,TxWx,2013-03-08 09:43:00,
2013-03-08 03:44:00,67.0,66.0,30.03,SE,135,4.0,5.0,95,0.00,,,0.00,TxWx,2013-03-08 09:44:00,
2013-03-08 03:49:00,67.0,66.0,30.03,SE,135,9.0,10.0,95,0.00,,,0.00,TxWx,2013-03-08 09:49:00,
2013-03-08 03:50:00,67.0,66.0,30.03,SE,135,6.0,8.0,95,0.00,,,0.00,TxWx,2013-03-08 09:50:00,
2013-03-08 03:55:00,67.0,66.0,30.03,SSE,157,6.0,7.0,95,0.00,,,0.00,TxWx,2013-03-08 09:55:00,
2013-03-08 03:57:00,67.0,66.0,30.03,SSE,157,4.0,5.0,95,0.00,,,0.00,TxWx,2013-03-08 09:57:00,
2013-03-08 03:58:00,67.0,66.0,30.03,SSE,157,8.0,8.0,95,0.00,,,0.00,TxWx,2013-03-08 09:58:00,
2013-03-08 03:59:00,67.0,66.0,30.03,SSE,157,8.0,8.0,95,0.00,,,0.00,TxWx,2013-03-08 09:59:00,
2013-03-08 04:03:00,67.0,66.0,30.03,SSE,157,7.0,8.0,95,0.00,,,0.00,TxWx,2013-03-08 10:03:00,
2013-03-08 04:04:00,67.0,66.0,30.03,South,180,7.0,8.0,95,0.00,,,0.00,TxWx,2013-03-08 10:04:00,
2013-03-08 04:06:00,67.0,66.0,30.03,South,180,9.0,9.0,96,0.00,,,0.00,TxWx,2013-03-08 10:06:00,
2013-03-08 04:09:00,67.0,66.0,30.03,ESE,112,4.0,5.0,96,0.00,,,0.00,TxWx,2013-03-08 10:09:00,
2013-03-08 04:11:00,67.0,66.0,30.03,South,180,5.0,5.0,96,0.00,,,0.00,TxWx,2013-03-08 10:11:00,
2013-03-08 04:14:00,67.0,66.0,30.04,SSE,157,9.0,9.0,96,0.00,,,0.00,TxWx,2013-03-08 10:14:00,
2013-03-08 04:16:00,67.0,66.0,30.03,SSW,202,5.0,5.0,96,0.00,,,0.00,TxWx,2013-03-08 10:16:00,
2013-03-08 04:17:00,67.0,66.0,30.03,SE,135,6.0,6.0,96,0.00,,,0.00,TxWx,2013-03-08 10:17:00,
2013-03-08 04:19:00,67.0,66.0,30.03,SSE,157,8.0,10.0,96,0.00,,,0.00,TxWx,2013-03-08 10:19:00,
2013-03-08 04:22:00,67.0,66.0,30.03,South,180,8.0,8.0,96,0.00,,,0.00,TxWx,2013-03-08 10:22:00,
2013-03-08 04:24:00,67.0,66.0,30.03,SSE,157,3.0,4.0,96,0.00,,,0.00,TxWx,2013-03-08 10:24:00,
2013-03-08 04:25:00,67.0,66.0,30.03,South,180,8.0,10.0,95,0.00,,,0.00,TxWx,2013-03-08 10:25:00,
2013-03-08 04:28:00,67.0,66.0,30.03,SSE,157,5.0,6.0,95,0.00,,,0.00,TxWx,2013-03-08 10:28:00,
2013-03-08 04:31:00,67.0,66.0,30.03,ENE,67,6.0,6.0,95,0.00,,,0.00,TxWx,2013-03-08 10:31:00,
2013-03-08 04:32:00,67.0,66.0,30.03,South,180,5.0,5.0,95,0.00,,,0.00,TxWx,2013-03-08 10:32:00,
2013-03-08 04:34:00,67.0,66.0,30.03,South,180,6.0,6.0,95,0.00,,,0.00,TxWx,2013-03-08 10:34:00,
2013-03-08 04:36:00,67.0,65.0,30.03,SSE,157,10.0,11.0,95,0.00,,,0.00,TxWx,2013-03-08 10:36:00,
2013-03-08 04:38:00,67.0,65.0,30.02,SE,135,10.0,10.0,95,0.00,,,0.00,TxWx,2013-03-08 10:38:00,
2013-03-08 04:39:00,67.0,65.0,30.02,SSE,157,11.0,11.0,95,0.00,,,0.00,TxWx,2013-03-08 10:39:00,
2013-03-08 04:42:00,67.0,65.0,30.02,South,180,8.0,10.0,95,0.00,,,0.00,TxWx,2013-03-08 10:42:00,
2013-03-08 04:44:00,67.0,65.0,30.02,SE,135,10.0,10.0,95,0.00,,,0.00,TxWx,2013-03-08 10:44:00,
2013-03-08 04:45:00,67.0,65.0,30.02,SSE,157,7.0,8.0,95,0.00,,,0.00,TxWx,2013-03-08 10:45:00,
2013-03-08 04:46:00,67.0,65.0,30.02,SE,135,9.0,9.0,95,0.00,,,0.00,TxWx,2013-03-08 10:46:00,
2013-03-08 04:47:00,67.0,65.0,30.02,SSE,157,8.0,8.0,94,0.00,,,0.00,TxWx,2013-03-08 10:47:00,
2013-03-08 04:50:00,67.0,65.0,30.02,SSE,157,11.0,12.0,94,0.00,,,0.00,TxWx,2013-03-08 10:50:00,
2013-03-08 04:52:00,67.0,65.0,30.02,SE,135,6.0,7.0,94,0.00,,,0.00,TxWx,2013-03-08 10:52:00,
2013-03-08 04:53:00,67.0,65.0,30.02,South,180,7.0,8.0,94,0.00,,,0.00,TxWx,2013-03-08 10:53:00,
2013-03-08 04:56:00,67.0,65.0,30.02,SSW,202,6.0,6.0,94,0.00,,,0.00,TxWx,2013-03-08 10:56:00,
2013-03-08 04:57:00,67.0,65.0,30.02,SSE,157,13.0,13.0,94,0.00,,,0.00,TxWx,2013-03-08 10:57:00,
2013-03-08 04:58:00,67.0,65.0,30.02,SSE,157,13.0,14.0,94,0.00,,,0.00,TxWx,2013-03-08 10:58:00,
2013-03-08 04:59:00,67.0,65.0,30.02,SE,135,13.0,13.0,94,0.00,,,0.00,TxWx,2013-03-08 10:59:00,
2013-03-08 05:01:00,67.0,65.0,30.02,ESE,112,8.0,9.0,94,0.00,,,0.00,TxWx,2013-03-08 11:01:00,
2013-03-08 05:03:00,67.0,65.0,30.02,SSW,202,8.0,10.0,94,0.00,,,0.00,TxWx,2013-03-08 11:03:00,
2013-03-08 05:07:00,67.0,65.0,30.02,SSE,157,11.0,11.0,94,0.00,,,0.00,TxWx,2013-03-08 11:07:00,
2013-03-08 05:08:00,67.0,65.0,30.02,ESE,112,9.0,10.0,94,0.00,,,0.00,TxWx,2013-03-08 11:08:00,
2013-03-08 05:09:00,67.0,65.0,30.02,SE,135,6.0,6.0,94,0.00,,,0.00,TxWx,2013-03-08 11:09:00,
2013-03-08 05:10:00,68.0,66.0,30.03,SSE,157,4.0,5.0,94,0.00,,,0.00,TxWx,2013-03-08 11:10:00,
2013-03-08 05:12:00,67.0,65.0,30.03,SSW,202,5.0,6.0,93,0.00,,,0.00,TxWx,2013-03-08 11:12:00,
2013-03-08 05:14:00,67.0,65.0,30.03,SSE,157,5.0,5.0,93,0.00,,,0.00,TxWx,2013-03-08 11:14:00,
2013-03-08 05:15:00,67.0,65.0,30.03,SE,135,5.0,6.0,93,0.00,,,0.00,TxWx,2013-03-08 11:15:00,
2013-03-08 05:16:00,67.0,65.0,30.03,SSW,202,11.0,12.0,93,0.00,,,0.00,TxWx,2013-03-08 11:16:00,
2013-03-08 05:18:00,68.0,66.0,30.04,South,180,5.0,5.0,93,0.00,,,0.00,TxWx,2013-03-08 11:18:00,
2013-03-08 05:20:00,68.0,66.0,30.04,SSW,202,6.0,7.0,93,0.00,,,0.00,TxWx,2013-03-08 11:20:00,
2013-03-08 05:21:00,68.0,66.0,30.04,South,180,10.0,10.0,93,0.00,,,0.00,TxWx,2013-03-08 11:21:00,
2013-03-08 05:25:00,68.0,66.0,30.04,South,180,7.0,10.0,93,0.00,,,0.00,TxWx,2013-03-08 11:25:00,
2013-03-08 05:26:00,68.0,66.0,30.04,SSE,157,10.0,14.0,93,0.00,,,0.00,TxWx,2013-03-08 11:26:00,
2013-03-08 05:29:00,68.0,66.0,30.04,SSE,157,8.0,10.0,93,0.00,,,0.00,TxWx,2013-03-08 11:29:00,
2013-03-08 05:31:00,68.0,66.0,30.04,SE,135,14.0,15.0,93,0.00,,,0.00,TxWx,2013-03-08 11:31:00,
2013-03-08 05:32:00,68.0,66.0,30.04,SE,135,9.0,12.0,93,0.00,,,0.00,TxWx,2013-03-08 11:32:00,
2013-03-08 05:34:00,68.0,66.0,30.04,South,180,7.0,8.0,93,0.00,,,0.00,TxWx,2013-03-08 11:34:00,
2013-03-08 05:36:00,68.0,66.0,30.05,SE,135,9.0,9.0,93,0.00,,,0.00,TxWx,2013-03-08 11:36:00,
2013-03-08 05:38:00,68.0,66.0,30.05,SSE,157,7.0,7.0,92,0.00,,,0.00,TxWx,2013-03-08 11:38:00,
2013-03-08 05:41:00,68.0,66.0,30.05,SE,135,8.0,8.0,92,0.00,,,0.00,TxWx,2013-03-08 11:41:00,
2013-03-08 05:42:00,68.0,66.0,30.05,SE,135,9.0,10.0,92,0.00,,,0.00,TxWx,2013-03-08 11:42:00,
2013-03-08 05:45:00,68.0,66.0,30.05,SSE,157,10.0,11.0,92,0.00,,,0.00,TxWx,2013-03-08 11:45:00,
2013-03-08 05:47:00,68.0,66.0,30.05,SE,135,10.0,11.0,92,0.00,,,0.00,TxWx,2013-03-08 11:47:00,
2013-03-08 05:48:00,68.0,66.0,30.05,South,180,11.0,11.0,92,0.00,,,0.00,TxWx,2013-03-08 11:48:00,
2013-03-08 05:50:00,68.0,66.0,30.05,SSE,157,4.0,4.0,92,0.00,,,0.00,TxWx,2013-03-08 11:50:00,
2013-03-08 05:51:00,68.0,66.0,30.05,SSE,157,5.0,5.0,92,0.00,,,0.00,TxWx,2013-03-08 11:51:00,
2013-03-08 05:52:00,68.0,66.0,30.04,SE,135,9.0,11.0,92,0.00,,,0.00,TxWx,2013-03-08 11:52:00,
2013-03-08 05:53:00,68.0,66.0,30.04,SSE,157,13.0,13.0,92,0.00,,,0.00,TxWx,2013-03-08 11:53:00,
2013-03-08 05:55:00,68.0,66.0,30.04,SSE,157,13.0,14.0,92,0.00,,,0.00,TxWx,2013-03-08 11:55:00,
2013-03-08 05:57:00,68.0,66.0,30.04,SSE,157,15.0,15.0,92,0.00,,,0.00,TxWx,2013-03-08 11:57:00,
2013-03-08 05:58:00,68.0,66.0,30.04,South,180,11.0,13.0,92,0.00,,,0.00,TxWx,2013-03-08 11:58:00,
2013-03-08 06:02:00,68.0,66.0,30.04,South,180,6.0,6.0,92,0.00,,,0.00,TxWx,2013-03-08 12:02:00,
2013-03-08 06:04:00,68.0,66.0,30.04,South,180,12.0,14.0,92,0.00,,,0.00,TxWx,2013-03-08 12:04:00,
2013-03-08 06:08:00,68.0,66.0,30.04,South,180,7.0,7.0,92,0.00,,,0.00,TxWx,2013-03-08 12:08:00,
2013-03-08 06:09:00,68.0,66.0,30.04,SSE,157,10.0,10.0,92,0.00,,,0.00,TxWx,2013-03-08 12:09:00,
2013-03-08 06:10:00,68.0,66.0,30.04,SE,135,8.0,10.0,92,0.00,,,0.00,TxWx,2013-03-08 12:10:00,
2013-03-08 06:12:00,68.0,66.0,30.04,South,180,14.0,14.0,93,0.00,,,0.00,TxWx,2013-03-08 12:12:00,
2013-03-08 06:15:00,68.0,66.0,30.04,SE,135,9.0,9.0,93,0.00,,,0.00,TxWx,2013-03-08 12:15:00,
2013-03-08 06:16:00,68.0,66.0,30.04,SSE,157,10.0,10.0,93,0.00,,,0.00,TxWx,2013-03-08 12:16:00,
2013-03-08 06:18:00,68.0,66.0,30.04,SSE,157,8.0,8.0,93,0.00,,,0.00,TxWx,2013-03-08 12:18:00,
2013-03-08 06:20:00,68.0,66.0,30.04,SE,135,10.0,10.0,93,0.00,,,0.00,TxWx,2013-03-08 12:20:00,
2013-03-08 06:23:00,68.0,66.0,30.04,SE,135,9.0,9.0,93,0.00,,,0.00,TxWx,2013-03-08 12:23:00,
2013-03-08 06:24:00,68.0,66.0,30.04,SE,135,9.0,10.0,93,0.00,,,0.00,TxWx,2013-03-08 12:24:00,
2013-03-08 06:26:00,68.0,66.0,30.04,SSE,157,5.0,5.0,93,0.00,,,0.00,TxWx,2013-03-08 12:26:00,
2013-03-08 06:29:00,68.0,66.0,30.04,South,180,5.0,6.0,93,0.00,,,0.00,TxWx,2013-03-08 12:29:00,
2013-03-08 06:31:00,68.0,66.0,30.04,SSW,202,10.0,10.0,93,0.00,,,0.00,TxWx,2013-03-08 12:31:00,
2013-03-08 06:35:00,68.0,66.0,30.05,SSE,157,7.0,8.0,93,0.00,,,0.00,TxWx,2013-03-08 12:35:00,
2013-03-08 06:37:00,68.0,66.0,30.05,South,180,6.0,6.0,93,0.00,,,0.00,TxWx,2013-03-08 12:37:00,
2013-03-08 06:38:00,68.0,66.0,30.05,SSW,202,10.0,10.0,93,0.00,,,0.00,TxWx,2013-03-08 12:38:00,
2013-03-08 06:43:00,68.0,66.0,30.04,SSE,157,11.0,11.0,93,0.00,,,0.00,TxWx,2013-03-08 12:43:00,
2013-03-08 06:44:00,68.0,66.0,30.05,South,180,5.0,6.0,93,0.00,,,0.00,TxWx,2013-03-08 12:44:00,
2013-03-08 06:46:00,68.0,66.0,30.05,SSE,157,8.0,8.0,93,0.00,,,0.00,TxWx,2013-03-08 12:46:00,
2013-03-08 06:49:00,68.0,66.0,30.04,SE,135,6.0,6.0,93,0.00,,,0.00,TxWx,2013-03-08 12:49:00,
2013-03-08 06:51:00,68.0,66.0,30.05,SE,135,10.0,11.0,93,0.00,,,0.00,TxWx,2013-03-08 12:51:00,
2013-03-08 06:54:00,68.0,66.0,30.04,SSW,202,7.0,9.0,93,0.00,,,0.00,TxWx,2013-03-08 12:54:00,
2013-03-08 06:57:00,68.0,66.0,30.04,SE,135,10.0,10.0,93,0.00,,,0.00,TxWx,2013-03-08 12:57:00,
2013-03-08 06:58:00,68.0,66.0,30.05,SE,135,8.0,12.0,93,0.00,,,0.00,TxWx,2013-03-08 12:58:00,
2013-03-08 06:59:00,68.0,66.0,30.05,ESE,112,11.0,11.0,93,0.00,,,0.00,TxWx,2013-03-08 12:59:00,
2013-03-08 07:02:00,68.0,66.0,30.05,SE,135,5.0,6.0,93,0.00,,,0.00,TxWx,2013-03-08 13:02:00,
2013-03-08 07:05:00,68.0,66.0,30.05,SSE,157,8.0,9.0,93,0.00,,,0.00,TxWx,2013-03-08 13:05:00,
2013-03-08 07:07:00,68.0,66.0,30.05,SE,135,3.0,3.0,93,0.00,,,0.00,TxWx,2013-03-08 13:07:00,
2013-03-08 07:10:00,68.0,66.0,30.05,SE,135,12.0,12.0,93,0.00,,,0.00,TxWx,2013-03-08 13:10:00,
2013-03-08 07:12:00,68.0,66.0,30.05,South,180,6.0,6.0,93,0.00,,,0.00,TxWx,2013-03-08 13:12:00,
2013-03-08 07:13:00,68.0,66.0,30.05,SSE,157,5.0,5.0,93,0.00,,,0.00,TxWx,2013-03-08 13:13:00,
2013-03-08 07:15:00,68.0,66.0,30.06,SSE,157,11.0,13.0,93,0.00,,,0.00,TxWx,2013-03-08 13:15:00,
2013-03-08 07:16:00,68.0,66.0,30.05,SE,135,10.0,10.0,93,0.00,,,0.00,TxWx,2013-03-08 13:16:00,
2013-03-08 07:20:00,68.0,66.0,30.06,SSE,157,5.0,6.0,93,0.00,,,0.00,TxWx,2013-03-08 13:20:00,
2013-03-08 07:21:00,68.0,66.0,30.06,SSW,202,7.0,8.0,93,0.00,,,0.00,TxWx,2013-03-08 13:21:00,
2013-03-08 07:23:00,68.0,66.0,30.06,SSE,157,6.0,6.0,93,0.00,,,0.00,TxWx,2013-03-08 13:23:00,
2013-03-08 07:25:00,68.0,66.0,30.06,SE,135,10.0,10.0,93,0.00,,,0.00,TxWx,2013-03-08 13:25:00,
2013-03-08 07:26:00,68.0,66.0,30.06,SSE,157,8.0,10.0,93,0.00,,,0.00,TxWx,2013-03-08 13:26:00,
2013-03-08 07:28:00,68.0,66.0,30.06,SE,135,14.0,14.0,93,0.00,,,0.00,TxWx,2013-03-08 13:28:00,
2013-03-08 07:29:00,68.0,66.0,30.06,SSW,202,11.0,12.0,92,0.00,,,0.00,TxWx,2013-03-08 13:29:00,
2013-03-08 07:31:00,68.0,66.0,30.06,SSE,157,8.0,8.0,92,0.00,,,0.00,TxWx,2013-03-08 13:31:00,
2013-03-08 07:34:00,68.0,66.0,30.06,SE,135,7.0,7.0,92,0.00,,,0.00,TxWx,2013-03-08 13:34:00,
2013-03-08 07:35:00,68.0,66.0,30.06,South,180,8.0,8.0,92,0.00,,,0.00,TxWx,2013-03-08 13:35:00,
2013-03-08 07:37:00,68.0,66.0,30.06,SSW,202,11.0,12.0,92,0.00,,,0.00,TxWx,2013-03-08 13:37:00,
2013-03-08 07:39:00,68.0,66.0,30.06,SE,135,6.0,7.0,92,0.00,,,0.00,TxWx,2013-03-08 13:39:00,
2013-03-08 07:40:00,68.0,66.0,30.06,SE,135,5.0,5.0,92,0.00,,,0.00,TxWx,2013-03-08 13:40:00,
2013-03-08 07:41:00,68.0,66.0,30.06,SSE,157,5.0,6.0,92,0.00,,,0.00,TxWx,2013-03-08 13:41:00,
2013-03-08 07:42:00,68.0,66.0,30.06,SSE,157,13.0,13.0,92,0.00,,,0.00,TxWx,2013-03-08 13:42:00,
2013-03-08 07:45:00,68.0,66.0,30.06,SSE,157,11.0,11.0,92,0.00,,,0.00,TxWx,2013-03-08 13:45:00,
2013-03-08 07:47:00,68.0,66.0,30.06,South,180,7.0,8.0,92,0.00,,,0.00,TxWx,2013-03-08 13:47:00,
2013-03-08 07:48:00,68.0,66.0,30.05,SSE,157,15.0,15.0,92,0.00,,,0.00,TxWx,2013-03-08 13:48:00,
2013-03-08 07:50:00,68.0,66.0,30.06,SE,135,7.0,8.0,92,0.00,,,0.00,TxWx,2013-03-08 13:50:00,
2013-03-08 07:51:00,68.0,66.0,30.05,SE,135,6.0,6.0,92,0.00,,,0.00,TxWx,2013-03-08 13:51:00,
2013-03-08 07:53:00,68.0,66.0,30.06,East,90,6.0,7.0,92,0.00,,,0.00,TxWx,2013-03-08 13:53:00,
2013-03-08 07:55:00,68.0,66.0,30.06,SSE,157,9.0,10.0,92,0.00,,,0.00,TxWx,2013-03-08 13:55:00,
2013-03-08 07:56:00,68.0,66.0,30.06,SE,135,8.0,8.0,92,0.00,,,0.00,TxWx,2013-03-08 13:56:00,
2013-03-08 07:57:00,68.0,66.0,30.06,SSE,157,5.0,6.0,92,0.00,,,0.00,TxWx,2013-03-08 13:57:00,
2013-03-08 07:58:00,69.0,67.0,30.06,SE,135,10.0,10.0,92,0.00,,,0.00,TxWx,2013-03-08 13:58:00,
2013-03-08 08:01:00,69.0,67.0,30.06,SSE,157,10.0,10.0,92,0.00,,,0.00,TxWx,2013-03-08 14:01:00,
2013-03-08 08:02:00,69.0,67.0,30.06,SSE,157,11.0,13.0,92,0.00,,,0.00,TxWx,2013-03-08 14:02:00,
2013-03-08 08:03:00,69.0,67.0,30.06,SSE,157,11.0,11.0,92,0.00,,,0.00,TxWx,2013-03-08 14:03:00,
2013-03-08 08:04:00,69.0,67.0,30.06,SE,135,9.0,9.0,92,0.00,,,0.00,TxWx,2013-03-08 14:04:00,
2013-03-08 08:08:00,69.0,66.0,30.06,SSE,157,13.0,13.0,92,0.00,,,0.00,TxWx,2013-03-08 14:08:00,
2013-03-08 08:09:00,69.0,66.0,30.06,South,180,14.0,14.0,92,0.00,,,0.00,TxWx,2013-03-08 14:09:00,
2013-03-08 08:13:00,69.0,66.0,30.06,South,180,11.0,14.0,92,0.00,,,0.00,TxWx,2013-03-08 14:13:00,
2013-03-08 08:14:00,69.0,66.0,30.06,SSE,157,7.0,8.0,92,0.00,,,0.00,TxWx,2013-03-08 14:14:00,
2013-03-08 08:18:00,69.0,66.0,30.06,SE,135,7.0,7.0,91,0.00,,,0.00,TxWx,2013-03-08 14:18:00,
2013-03-08 08:19:00,69.0,66.0,30.06,SSE,157,12.0,12.0,91,0.00,,,0.00,TxWx,2013-03-08 14:19:00,
2013-03-08 08:20:00,69.0,66.0,30.06,SSW,202,8.0,10.0,91,0.00,,,0.00,TxWx,2013-03-08 14:20:00,
2013-03-08 08:24:00,69.0,66.0,30.06,South,180,11.0,11.0,91,0.00,,,0.00,TxWx,2013-03-08 14:24:00,
2013-03-08 08:25:00,69.0,66.0,30.06,SE,135,8.0,8.0,91,0.00,,,0.00,TxWx,2013-03-08 14:25:00,
2013-03-08 08:26:00,69.0,66.0,30.06,SSE,157,8.0,8.0,91,0.00,,,0.00,TxWx,2013-03-08 14:26:00,
2013-03-08 08:31:00,69.0,66.0,30.06,SE,135,10.0,10.0,91,0.00,,,0.00,TxWx,2013-03-08 14:31:00,
2013-03-08 08:32:00,69.0,66.0,30.06,SE,135,13.0,13.0,91,0.00,,,0.00,TxWx,2013-03-08 14:32:00,
2013-03-08 08:33:00,69.0,66.0,30.06,SE,135,6.0,9.0,91,0.00,,,0.00,TxWx,2013-03-08 14:33:00,
2013-03-08 08:36:00,69.0,66.0,30.06,South,180,16.0,18.0,92,0.00,,,0.00,TxWx,2013-03-08 14:36:00,
2013-03-08 08:38:00,69.0,66.0,30.06,SE,135,9.0,9.0,92,0.00,,,0.00,TxWx,2013-03-08 14:38:00,
2013-03-08 08:39:00,69.0,66.0,30.06,SE,135,8.0,8.0,92,0.00,,,0.00,TxWx,2013-03-08 14:39:00,
2013-03-08 08:41:00,69.0,66.0,30.06,SSW,202,10.0,10.0,92,0.00,,,0.00,TxWx,2013-03-08 14:41:00,
2013-03-08 08:44:00,69.0,66.0,30.06,SSE,157,6.0,8.0,91,0.00,,,0.00,TxWx,2013-03-08 14:44:00,
2013-03-08 08:48:00,69.0,66.0,30.06,SE,135,11.0,11.0,91,0.00,,,0.00,TxWx,2013-03-08 14:48:00,
2013-03-08 08:49:00,69.0,66.0,30.06,South,180,9.0,9.0,91,0.00,,,0.00,TxWx,2013-03-08 14:49:00,
2013-03-08 08:50:00,69.0,66.0,30.06,South,180,10.0,11.0,91,0.00,,,0.00,TxWx,2013-03-08 14:50:00,
2013-03-08 08:53:00,69.0,66.0,30.06,ESE,112,13.0,13.0,91,0.00,,,0.00,TxWx,2013-03-08 14:53:00,
2013-03-08 08:54:00,69.0,66.0,30.06,SE,135,7.0,7.0,91,0.00,,,0.00,TxWx,2013-03-08 14:54:00,
2013-03-08 08:55:00,69.0,66.0,30.06,SE,135,9.0,10.0,91,0.00,,,0.00,TxWx,2013-03-08 14:55:00,
2013-03-08 08:59:00,69.0,66.0,30.07,SSW,202,13.0,13.0,91,0.00,,,0.00,TxWx,2013-03-08 14:59:00,
2013-03-08 09:00:00,69.0,66.0,30.07,SE,135,10.0,12.0,91,0.00,,,0.00,TxWx,2013-03-08 15:00:00,
2013-03-08 09:01:00,69.0,66.0,30.07,SE,135,8.0,10.0,91,0.00,,,0.00,TxWx,2013-03-08 15:01:00,
2013-03-08 09:05:00,70.0,67.0,30.07,SSW,202,6.0,6.0,91,0.00,,,0.00,TxWx,2013-03-08 15:05:00,
2013-03-08 09:07:00,70.0,67.0,30.07,SE,135,9.0,13.0,91,0.00,,,0.00,TxWx,2013-03-08 15:07:00,
2013-03-08 09:11:00,70.0,67.0,30.07,SE,135,13.0,14.0,91,0.00,,,0.00,TxWx,2013-03-08 15:11:00,
2013-03-08 09:12:00,70.0,67.0,30.07,SSE,157,8.0,8.0,90,0.00,,,0.00,TxWx,2013-03-08 15:12:00,
2013-03-08 09:14:00,70.0,67.0,30.07,SSE,157,7.0,7.0,90,0.00,,,0.00,TxWx,2013-03-08 15:14:00,
2013-03-08 09:16:00,70.0,67.0,30.07,SE,135,11.0,11.0,90,0.00,,,0.00,TxWx,2013-03-08 15:16:00,
2013-03-08 09:18:00,70.0,67.0,30.07,SSE,157,14.0,14.0,90,0.00,,,0.00,TxWx,2013-03-08 15:18:00,
2013-03-08 09:19:00,70.0,67.0,30.07,SSW,202,9.0,9.0,90,0.00,,,0.00,TxWx,2013-03-08 15:19:00,
2013-03-08 09:22:00,70.0,67.0,30.07,SE,135,5.0,7.0,90,0.00,,,0.00,TxWx,2013-03-08 15:22:00,
2013-03-08 09:23:00,70.0,67.0,30.07,SSW,202,11.0,13.0,90,0.00,,,0.00,TxWx,2013-03-08 15:23:00,
2013-03-08 09:25:00,70.0,67.0,30.07,SE,135,7.0,8.0,90,0.00,,,0.00,TxWx,2013-03-08 15:25:00,
2013-03-08 09:27:00,70.0,67.0,30.07,SSE,157,8.0,10.0,90,0.00,,,0.00,TxWx,2013-03-08 15:27:00,
2013-03-08 09:29:00,70.0,67.0,30.07,SE,135,11.0,12.0,90,0.00,,,0.00,TxWx,2013-03-08 15:29:00,
2013-03-08 09:31:00,70.0,67.0,30.07,SE,135,14.0,14.0,90,0.00,,,0.00,TxWx,2013-03-08 15:31:00,
2013-03-08 09:32:00,70.0,67.0,30.07,East,90,7.0,7.0,90,0.00,,,0.00,TxWx,2013-03-08 15:32:00,
2013-03-08 09:34:00,70.0,67.0,30.07,SSE,157,10.0,12.0,90,0.00,,,0.00,TxWx,2013-03-08 15:34:00,
2013-03-08 09:37:00,70.0,67.0,30.07,SSE,157,11.0,15.0,90,0.00,,,0.00,TxWx,2013-03-08 15:37:00,
2013-03-08 09:38:00,70.0,67.0,30.07,SE,135,13.0,14.0,90,0.00,,,0.00,TxWx,2013-03-08 15:38:00,
2013-03-08 09:40:00,70.0,67.0,30.07,SSE,157,6.0,6.0,90,0.00,,,0.00,TxWx,2013-03-08 15:40:00,
2013-03-08 09:44:00,70.0,67.0,30.07,SSE,157,17.0,17.0,90,0.00,,,0.00,TxWx,2013-03-08 15:44:00,
2013-03-08 09:45:00,70.0,67.0,30.07,SE,135,5.0,6.0,90,0.00,,,0.00,TxWx,2013-03-08 15:45:00,
2013-03-08 09:50:00,70.0,67.0,30.07,SE,135,13.0,14.0,90,0.00,,,0.00,TxWx,2013-03-08 15:50:00,
2013-03-08 09:51:00,70.0,67.0,30.07,SE,135,11.0,11.0,90,0.00,,,0.00,TxWx,2013-03-08 15:51:00,
2013-03-08 09:52:00,70.0,67.0,30.07,SSE,157,10.0,10.0,90,0.00,,,0.00,TxWx,2013-03-08 15:52:00,
2013-03-08 09:56:00,70.0,67.0,30.08,South,180,9.0,9.0,90,0.00,,,0.00,TxWx,2013-03-08 15:56:00,
2013-03-08 09:57:00,70.0,67.0,30.08,SE,135,6.0,7.0,90,0.00,,,0.00,TxWx,2013-03-08 15:57:00,
2013-03-08 10:01:00,70.0,67.0,30.08,SE,135,10.0,10.0,90,0.00,,,0.00,TxWx,2013-03-08 16:01:00,
2013-03-08 10:02:00,70.0,67.0,30.08,ESE,112,5.0,5.0,90,0.00,,,0.00,TxWx,2013-03-08 16:02:00,
2013-03-08 10:04:00,70.0,67.0,30.08,SE,135,9.0,10.0,90,0.00,,,0.00,TxWx,2013-03-08 16:04:00,
2013-03-08 10:06:00,70.0,67.0,30.08,SE,135,10.0,10.0,90,0.00,,,0.00,TxWx,2013-03-08 16:06:00,
2013-03-08 10:07:00,70.0,67.0,30.08,SE,135,6.0,7.0,90,0.00,,,0.00,TxWx,2013-03-08 16:07:00,
2013-03-08 10:13:00,70.0,67.0,30.08,SE,135,10.0,11.0,90,0.00,,,0.00,TxWx,2013-03-08 16:13:00,
2013-03-08 10:14:00,70.0,67.0,30.08,SE,135,6.0,6.0,90,0.00,,,0.00,TxWx,2013-03-08 16:14:00,
2013-03-08 10:19:00,70.0,67.0,30.08,South,180,12.0,12.0,90,0.00,,,0.00,TxWx,2013-03-08 16:19:00,
2013-03-08 10:20:00,70.0,67.0,30.08,South,180,10.0,11.0,90,0.00,,,0.00,TxWx,2013-03-08 16:20:00,
2013-03-08 10:24:00,70.0,67.0,30.08,SE,135,6.0,6.0,90,0.00,,,0.00,TxWx,2013-03-08 16:24:00,
2013-03-08 10:25:00,70.0,67.0,30.08,SE,135,10.0,10.0,90,0.00,,,0.00,TxWx,2013-03-08 16:25:00,
2013-03-08 10:26:00,70.0,67.0,30.08,SSE,157,8.0,8.0,90,0.00,,,0.00,TxWx,2013-03-08 16:26:00,
2013-03-08 10:30:00,70.0,67.0,30.09,SSE,157,16.0,18.0,89,0.00,,,0.00,TxWx,2013-03-08 16:30:00,
2013-03-08 10:31:00,70.0,67.0,30.08,SSW,202,7.0,8.0,89,0.00,,,0.00,TxWx,2013-03-08 16:31:00,
2013-03-08 10:32:00,70.0,67.0,30.09,South,180,8.0,10.0,89,0.00,,,0.00,TxWx,2013-03-08 16:32:00,
2013-03-08 10:36:00,70.0,67.0,30.09,SE,135,11.0,11.0,89,0.00,,,0.00,TxWx,2013-03-08 16:36:00,
2013-03-08 10:37:00,70.0,67.0,30.09,SSE,157,8.0,10.0,89,0.00,,,0.00,TxWx,2013-03-08 16:37:00,
2013-03-08 10:42:00,71.0,68.0,30.09,South,180,11.0,11.0,89,0.00,,,0.00,TxWx,2013-03-08 16:42:00,
2013-03-08 10:44:00,71.0,67.0,30.09,SE,135,10.0,10.0,89,0.00,,,0.00,TxWx,2013-03-08 16:44:00,
2013-03-08 10:47:00,71.0,67.0,30.09,South,180,9.0,10.0,88,0.00,,,0.00,TxWx,2013-03-08 16:47:00,
2013-03-08 10:48:00,71.0,67.0,30.09,ESE,112,6.0,6.0,89,0.00,,,0.00,TxWx,2013-03-08 16:48:00,
2013-03-08 10:50:00,71.0,67.0,30.09,SE,135,8.0,10.0,88,0.00,,,0.00,TxWx,2013-03-08 16:50:00,
2013-03-08 10:52:00,70.0,66.0,30.09,SE,135,11.0,12.0,88,0.00,,,0.00,TxWx,2013-03-08 16:52:00,
2013-03-08 10:53:00,70.0,66.0,30.09,SE,135,10.0,10.0,88,0.00,,,0.00,TxWx,2013-03-08 16:53:00,
2013-03-08 10:55:00,70.0,66.0,30.09,SE,135,11.0,12.0,89,0.00,,,0.00,TxWx,2013-03-08 16:55:00,
2013-03-08 10:58:00,70.0,66.0,30.09,SSE,157,10.0,11.0,89,0.00,,,0.00,TxWx,2013-03-08 16:58:00,
2013-03-08 11:01:00,71.0,67.0,30.09,SSE,157,10.0,10.0,89,0.00,,,0.00,TxWx,2013-03-08 17:01:00,
2013-03-08 11:03:00,71.0,67.0,30.09,SSE,157,6.0,8.0,89,0.00,,,0.00,TxWx,2013-03-08 17:03:00,
2013-03-08 11:04:00,71.0,67.0,30.09,SE,135,8.0,10.0,88,0.00,,,0.00,TxWx,2013-03-08 17:04:00,
2013-03-08 11:06:00,71.0,67.0,30.09,SE,135,16.0,17.0,88,0.00,,,0.00,TxWx,2013-03-08 17:06:00,
2013-03-08 11:08:00,71.0,67.0,30.09,ESE,112,8.0,10.0,88,0.00,,,0.00,TxWx,2013-03-08 17:08:00,
2013-03-08 11:10:00,71.0,0.0,30.08,SE,135,14.0,14.0,88,0.00,,,0.00,TxWx,2013-03-08 17:10:00,
2013-03-08 11:12:00,71.0,67.0,30.08,SE,135,6.0,8.0,88,0.00,,,0.00,TxWx,2013-03-08 17:12:00,
2013-03-08 11:14:00,71.0,67.0,30.08,SE,135,8.0,8.0,88,0.00,,,0.00,TxWx,2013-03-08 17:14:00,
2013-03-08 11:15:00,71.0,67.0,30.08,SE,135,14.0,14.0,88,0.00,,,0.00,TxWx,2013-03-08 17:15:00,
2013-03-08 11:18:00,71.0,67.0,30.08,SE,135,14.0,14.0,88,0.00,,,0.00,TxWx,2013-03-08 17:18:00,
2013-03-08 11:19:00,71.0,67.0,30.08,SSE,157,16.0,16.0,88,0.00,,,0.00,TxWx,2013-03-08 17:19:00,
2013-03-08 11:22:00,71.0,67.0,30.08,SSE,157,13.0,13.0,88,0.00,,,0.00,TxWx,2013-03-08 17:22:00,
2013-03-08 11:23:00,71.0,67.0,30.08,SSE,157,9.0,10.0,88,0.00,,,0.00,TxWx,2013-03-08 17:23:00,
2013-03-08 11:24:00,71.0,67.0,30.08,SE,135,21.0,21.0,88,0.00,,,0.00,TxWx,2013-03-08 17:24:00,
2013-03-08 11:29:00,71.0,67.0,30.08,SE,135,13.0,13.0,88,0.00,,,0.00,TxWx,2013-03-08 17:29:00,
2013-03-08 11:30:00,71.0,67.0,30.07,SSE,157,7.0,10.0,88,0.00,,,0.00,TxWx,2013-03-08 17:30:00,
2013-03-08 11:34:00,71.0,67.0,30.07,SE,135,11.0,16.0,88,0.00,,,0.00,TxWx,2013-03-08 17:34:00,
2013-03-08 11:35:00,71.0,67.0,30.07,SE,135,6.0,8.0,88,0.00,,,0.00,TxWx,2013-03-08 17:35:00,
2013-03-08 11:40:00,71.0,67.0,30.07,SE,135,8.0,8.0,88,0.00,,,0.00,TxWx,2013-03-08 17:40:00,
2013-03-08 11:41:00,71.0,67.0,30.07,SSE,157,9.0,10.0,88,0.00,,,0.00,TxWx,2013-03-08 17:41:00,
2013-03-08 11:45:00,71.0,67.0,30.07,SSE,157,11.0,11.0,87,0.00,,,0.00,TxWx,2013-03-08 17:45:00,
2013-03-08 11:46:00,71.0,67.0,30.07,SSE,157,13.0,15.0,87,0.00,,,0.00,TxWx,2013-03-08 17:46:00,
2013-03-08 11:47:00,71.0,67.0,30.07,SE,135,14.0,15.0,88,0.00,,,0.00,TxWx,2013-03-08 17:47:00,
2013-03-08 11:50:00,71.0,67.0,30.07,SSE,157,16.0,17.0,87,0.00,,,0.00,TxWx,2013-03-08 17:50:00,
2013-03-08 11:52:00,71.0,67.0,30.06,SE,135,11.0,14.0,87,0.00,,,0.00,TxWx,2013-03-08 17:52:00,
2013-03-08 11:55:00,71.0,67.0,30.07,ESE,112,16.0,16.0,87,0.00,,,0.00,TxWx,2013-03-08 17:55:00,
2013-03-08 11:56:00,71.0,67.0,30.07,SE,135,10.0,10.0,87,0.00,,,0.00,TxWx,2013-03-08 17:56:00,
2013-03-08 11:58:00,71.0,67.0,30.06,SSE,157,10.0,13.0,87,0.00,,,0.00,TxWx,2013-03-08 17:58:00,
2013-03-08 12:01:00,72.0,68.0,30.06,ESE,112,12.0,12.0,87,0.00,,,0.00,TxWx,2013-03-08 18:01:00,
2013-03-08 12:02:00,72.0,68.0,30.06,SSE,157,10.0,10.0,87,0.00,,,0.00,TxWx,2013-03-08 18:02:00,
2013-03-08 12:03:00,72.0,68.0,30.06,SSE,157,10.0,11.0,87,0.00,,,0.00,TxWx,2013-03-08 18:03:00,
2013-03-08 12:07:00,72.0,68.0,30.07,SE,135,18.0,18.0,86,0.00,,,0.00,TxWx,2013-03-08 18:07:00,
2013-03-08 12:08:00,72.0,67.0,30.07,SSE,157,11.0,11.0,86,0.00,,,0.00,TxWx,2013-03-08 18:08:00,
2013-03-08 12:09:00,72.0,67.0,30.06,SSE,157,12.0,12.0,86,0.00,,,0.00,TxWx,2013-03-08 18:09:00,
2013-03-08 12:13:00,72.0,67.0,30.06,SE,135,17.0,19.0,86,0.00,,,0.00,TxWx,2013-03-08 18:13:00,
2013-03-08 12:14:00,72.0,67.0,30.06,SE,135,12.0,13.0,86,0.00,,,0.00,TxWx,2013-03-08 18:14:00,
2013-03-08 12:19:00,72.0,67.0,30.06,SE,135,16.0,16.0,85,0.00,,,0.00,TxWx,2013-03-08 18:19:00,
2013-03-08 12:20:00,72.0,67.0,30.05,SE,135,18.0,18.0,85,0.00,,,0.00,TxWx,2013-03-08 18:20:00,
2013-03-08 12:24:00,72.0,67.0,30.05,SE,135,13.0,16.0,85,0.00,,,0.00,TxWx,2013-03-08 18:24:00,
2013-03-08 12:26:00,72.0,67.0,30.05,SE,135,15.0,18.0,85,0.00,,,0.00,TxWx,2013-03-08 18:26:00,
2013-03-08 12:30:00,71.0,66.0,30.05,SSE,157,19.0,22.0,85,0.00,,,0.00,TxWx,2013-03-08 18:30:00,
2013-03-08 12:31:00,72.0,67.0,30.04,SSE,157,9.0,13.0,85,0.00,,,0.00,TxWx,2013-03-08 18:31:00,
2013-03-08 12:35:00,72.0,67.0,30.04,SE,135,14.0,15.0,85,0.00,,,0.00,TxWx,2013-03-08 18:35:00,
2013-03-08 12:37:00,72.0,67.0,30.04,SE,135,11.0,14.0,85,0.00,,,0.00,TxWx,2013-03-08 18:37:00,
2013-03-08 12:38:00,72.0,67.0,30.04,SSE,157,7.0,7.0,85,0.00,,,0.00,TxWx,2013-03-08 18:38:00,
2013-03-08 12:40:00,72.0,67.0,30.04,SE,135,13.0,13.0,85,0.00,,,0.00,TxWx,2013-03-08 18:40:00,
2013-03-08 12:43:00,72.0,67.0,30.04,SSE,157,8.0,12.0,85,0.00,,,0.00,TxWx,2013-03-08 18:43:00,
2013-03-08 12:44:00,72.0,67.0,30.04,SE,135,11.0,13.0,85,0.00,,,0.00,TxWx,2013-03-08 18:44:00,
2013-03-08 12:46:00,72.0,67.0,30.04,SE,135,13.0,17.0,85,0.00,,,0.00,TxWx,2013-03-08 18:46:00,
2013-03-08 12:47:00,71.0,66.0,30.03,SE,135,19.0,19.0,85,0.00,,,0.00,TxWx,2013-03-08 18:47:00,
2013-03-08 12:50:00,71.0,66.0,30.03,SE,135,14.0,14.0,86,0.00,,,0.00,TxWx,2013-03-08 18:50:00,
2013-03-08 12:52:00,71.0,66.0,30.03,SSE,157,16.0,16.0,86,0.00,,,0.00,TxWx,2013-03-08 18:52:00,
2013-03-08 12:55:00,71.0,67.0,30.03,SE,135,9.0,9.0,86,0.00,,,0.00,TxWx,2013-03-08 18:55:00,
2013-03-08 12:56:00,71.0,67.0,30.03,SE,135,17.0,18.0,86,0.00,,,0.00,TxWx,2013-03-08 18:56:00,
2013-03-08 12:57:00,71.0,67.0,30.03,ESE,112,10.0,10.0,86,0.00,,,0.00,TxWx,2013-03-08 18:57:00,
2013-03-08 13:00:00,71.0,67.0,30.03,SE,135,12.0,13.0,87,0.00,,,0.00,TxWx,2013-03-08 19:00:00,
2013-03-08 13:01:00,71.0,67.0,30.03,SSE,157,16.0,16.0,87,0.00,,,0.00,TxWx,2013-03-08 19:01:00,
2013-03-08 13:02:00,71.0,67.0,30.03,SE,135,18.0,19.0,87,0.00,,,0.00,TxWx,2013-03-08 19:02:00,
2013-03-08 13:06:00,71.0,67.0,30.03,SSE,157,10.0,13.0,87,0.00,,,0.00,TxWx,2013-03-08 19:06:00,
2013-03-08 13:07:00,71.0,67.0,30.03,ESE,112,13.0,14.0,87,0.00,,,0.00,TxWx,2013-03-08 19:07:00,
2013-03-08 13:08:00,71.0,67.0,30.03,SSE,157,14.0,15.0,87,0.00,,,0.00,TxWx,2013-03-08 19:08:00,
2013-03-08 13:12:00,71.0,67.0,30.02,SSE,157,14.0,17.0,87,0.00,,,0.00,TxWx,2013-03-08 19:12:00,
2013-03-08 13:13:00,71.0,67.0,30.02,SE,135,14.0,14.0,87,0.00,,,0.00,TxWx,2013-03-08 19:13:00,
2013-03-08 13:17:00,71.0,67.0,30.02,SE,135,19.0,19.0,87,0.00,,,0.00,TxWx,2013-03-08 19:17:00,
2013-03-08 13:18:00,71.0,67.0,30.02,ESE,112,15.0,17.0,87,0.00,,,0.00,TxWx,2013-03-08 19:18:00,
2013-03-08 13:22:00,71.0,67.0,30.02,SE,135,16.0,17.0,87,0.00,,,0.00,TxWx,2013-03-08 19:22:00,
2013-03-08 13:23:00,71.0,67.0,30.02,SE,135,10.0,14.0,87,0.00,,,0.00,TxWx,2013-03-08 19:23:00,
2013-03-08 13:25:00,71.0,67.0,30.02,East,90,12.0,14.0,87,0.00,,,0.00,TxWx,2013-03-08 19:25:00,
2013-03-08 13:27:00,72.0,68.0,30.02,SSE,157,10.0,10.0,87,0.00,,,0.00,TxWx,2013-03-08 19:27:00,
2013-03-08 13:29:00,71.0,67.0,30.02,SE,135,21.0,21.0,87,0.00,,,0.00,TxWx,2013-03-08 19:29:00,
2013-03-08 13:31:00,71.0,67.0,30.02,ESE,112,10.0,12.0,86,0.00,,,0.00,TxWx,2013-03-08 19:31:00,
2013-03-08 13:32:00,71.0,67.0,30.02,SSE,157,16.0,16.0,87,0.00,,,0.00,TxWx,2013-03-08 19:32:00,
2013-03-08 13:34:00,71.0,67.0,30.01,ESE,112,12.0,14.0,86,0.00,,,0.00,TxWx,2013-03-08 19:34:00,
2013-03-08 13:36:00,72.0,68.0,30.01,SE,135,10.0,10.0,87,0.00,,,0.00,TxWx,2013-03-08 19:36:00,
2013-03-08 13:37:00,72.0,68.0,30.01,SSW,202,13.0,13.0,86,0.00,,,0.00,TxWx,2013-03-08 19:37:00,
2013-03-08 13:40:00,71.0,67.0,30.01,SE,135,18.0,19.0,86,0.00,,,0.00,TxWx,2013-03-08 19:40:00,
2013-03-08 13:42:00,72.0,68.0,30.01,SE,135,22.0,23.0,86,0.00,,,0.00,TxWx,2013-03-08 19:42:00,
2013-03-08 13:44:00,72.0,67.0,30.01,SE,135,18.0,18.0,86,0.00,,,0.00,TxWx,2013-03-08 19:44:00,
2013-03-08 13:45:00,72.0,68.0,30.01,SE,135,18.0,18.0,86,0.00,,,0.00,TxWx,2013-03-08 19:45:00,
2013-03-08 13:48:00,71.0,67.0,30.01,SE,135,14.0,15.0,86,0.00,,,0.00,TxWx,2013-03-08 19:48:00,
2013-03-08 13:50:00,72.0,68.0,30.01,SE,135,16.0,16.0,86,0.00,,,0.00,TxWx,2013-03-08 19:50:00,
2013-03-08 13:53:00,72.0,68.0,30.01,SE,135,14.0,14.0,86,0.00,,,0.00,TxWx,2013-03-08 19:53:00,
2013-03-08 13:55:00,71.0,67.0,30.01,ESE,112,11.0,11.0,86,0.00,,,0.00,TxWx,2013-03-08 19:55:00,
2013-03-08 13:56:00,71.0,66.0,30.01,SSE,157,16.0,18.0,86,0.00,,,0.00,TxWx,2013-03-08 19:56:00,
2013-03-08 13:59:00,71.0,67.0,30.01,SE,135,13.0,13.0,86,0.00,,,0.00,TxWx,2013-03-08 19:59:00,
2013-03-08 14:01:00,71.0,67.0,30.01,SE,135,18.0,19.0,86,0.00,,,0.00,TxWx,2013-03-08 20:01:00,
2013-03-08 14:04:00,71.0,67.0,30.01,SSE,157,11.0,11.0,87,0.00,,,0.00,TxWx,2013-03-08 20:04:00,
2013-03-08 14:05:00,71.0,67.0,30.01,SSE,157,14.0,15.0,87,0.00,,,0.00,TxWx,2013-03-08 20:05:00,
2013-03-08 14:07:00,71.0,67.0,30.01,SE,135,13.0,14.0,87,0.00,,,0.00,TxWx,2013-03-08 20:07:00,
2013-03-08 14:09:00,71.0,67.0,30.01,SSE,157,18.0,18.0,87,0.00,,,0.00,TxWx,2013-03-08 20:09:00,
2013-03-08 14:10:00,71.0,67.0,30.01,SE,135,10.0,10.0,87,0.00,,,0.00,TxWx,2013-03-08 20:10:00,
2013-03-08 14:13:00,71.0,67.0,30.01,SSE,157,12.0,12.0,87,0.00,,,0.00,TxWx,2013-03-08 20:13:00,
2013-03-08 14:15:00,71.0,67.0,30.01,SE,135,21.0,21.0,87,0.00,,,0.00,TxWx,2013-03-08 20:15:00,
2013-03-08 14:16:00,71.0,67.0,30.01,SE,135,19.0,20.0,86,0.00,,,0.00,TxWx,2013-03-08 20:16:00,
2013-03-08 14:18:00,71.0,66.0,30.01,SE,135,18.0,18.0,86,0.00,,,0.00,TxWx,2013-03-08 20:18:00,
2013-03-08 14:21:00,72.0,67.0,30.01,SSE,157,13.0,14.0,86,0.00,,,0.00,TxWx,2013-03-08 20:21:00,
2013-03-08 14:23:00,72.0,67.0,30.01,SE,135,8.0,8.0,86,0.00,,,0.00,TxWx,2013-03-08 20:23:00,
2013-03-08 14:27:00,72.0,67.0,30.01,ESE,112,15.0,17.0,85,0.00,,,0.00,TxWx,2013-03-08 20:27:00,
2013-03-08 14:28:00,72.0,67.0,30.01,SE,135,16.0,18.0,85,0.00,,,0.00,TxWx,2013-03-08 20:28:00,
2013-03-08 14:30:00,72.0,67.0,30.01,SE,135,13.0,13.0,85,0.00,,,0.00,TxWx,2013-03-08 20:30:00,
2013-03-08 14:33:00,72.0,67.0,30.00,ESE,112,10.0,13.0,84,0.00,,,0.00,TxWx,2013-03-08 20:33:00,
2013-03-08 14:34:00,72.0,67.0,30.01,ESE,112,18.0,18.0,84,0.00,,,0.00,TxWx,2013-03-08 20:34:00,
2013-03-08 14:36:00,72.0,67.0,30.01,SSE,157,12.0,12.0,84,0.00,,,0.00,TxWx,2013-03-08 20:36:00,
2013-03-08 14:38:00,72.0,67.0,30.01,South,180,10.0,10.0,84,0.00,,,0.00,TxWx,2013-03-08 20:38:00,
2013-03-08 14:40:00,72.0,67.0,30.01,SSE,157,17.0,17.0,84,0.00,,,0.00,TxWx,2013-03-08 20:40:00,
2013-03-08 14:43:00,72.0,67.0,30.01,SSE,157,18.0,18.0,83,0.00,,,0.00,TxWx,2013-03-08 20:43:00,
2013-03-08 14:44:00,72.0,67.0,30.01,SSE,157,16.0,17.0,83,0.00,,,0.00,TxWx,2013-03-08 20:44:00,
2013-03-08 14:48:00,72.0,67.0,30.02,SE,135,12.0,12.0,83,0.00,,,0.00,TxWx,2013-03-08 20:48:00,
2013-03-08 14:49:00,72.0,67.0,30.01,SE,135,22.0,27.0,83,0.00,,,0.00,TxWx,2013-03-08 20:49:00,
2013-03-08 14:51:00,72.0,67.0,30.01,ESE,112,13.0,16.0,83,0.00,,,0.00,TxWx,2013-03-08 20:51:00,
2013-03-08 14:55:00,72.0,67.0,30.01,SE,135,13.0,14.0,83,0.00,,,0.00,TxWx,2013-03-08 20:55:00,
2013-03-08 14:56:00,72.0,67.0,30.01,ESE,112,20.0,20.0,83,0.00,,,0.00,TxWx,2013-03-08 20:56:00,
2013-03-08 15:00:00,72.0,67.0,30.01,SSE,157,19.0,23.0,83,0.00,,,0.00,TxWx,2013-03-08 21:00:00,
2013-03-08 15:02:00,71.0,66.0,30.01,SE,135,19.0,20.0,83,0.00,,,0.00,TxWx,2013-03-08 21:02:00,
2013-03-08 15:05:00,71.0,66.0,30.00,SE,135,18.0,18.0,84,0.00,,,0.00,TxWx,2013-03-08 21:05:00,
2013-03-08 15:06:00,71.0,66.0,30.00,SSE,157,20.0,20.0,84,0.00,,,0.00,TxWx,2013-03-08 21:06:00,
2013-03-08 15:07:00,71.0,66.0,30.00,South,180,12.0,14.0,84,0.00,,,0.00,TxWx,2013-03-08 21:07:00,
2013-03-08 15:08:00,72.0,67.0,30.01,SE,135,13.0,13.0,84,0.00,,,0.00,TxWx,2013-03-08 21:08:00,
2013-03-08 15:11:00,71.0,66.0,30.00,SE,135,21.0,21.0,84,0.00,,,0.00,TxWx,2013-03-08 21:11:00,
2013-03-08 15:12:00,71.0,66.0,30.01,SE,135,11.0,14.0,84,0.00,,,0.00,TxWx,2013-03-08 21:12:00,
2013-03-08 15:16:00,71.0,66.0,30.01,SSE,157,8.0,10.0,84,0.00,,,0.00,TxWx,2013-03-08 21:16:00,
2013-03-08 15:17:00,72.0,67.0,30.01,East,90,7.0,7.0,84,0.00,,,0.00,TxWx,2013-03-08 21:17:00,
2013-03-08 15:18:00,71.0,66.0,30.01,SE,135,11.0,11.0,84,0.00,,,0.00,TxWx,2013-03-08 21:18:00,
2013-03-08 15:22:00,72.0,67.0,30.01,SE,135,18.0,18.0,84,0.00,,,0.00,TxWx,2013-03-08 21:22:00,
2013-03-08 15:23:00,71.0,66.0,30.01,SE,135,14.0,15.0,83,0.00,,,0.00,TxWx,2013-03-08 21:23:00,
2013-03-08 15:27:00,71.0,66.0,30.01,SE,135,18.0,18.0,84,0.00,,,0.00,TxWx,2013-03-08 21:27:00,
2013-03-08 15:28:00,71.0,66.0,30.01,SSE,157,14.0,15.0,84,0.00,,,0.00,TxWx,2013-03-08 21:28:00,
2013-03-08 15:32:00,71.0,66.0,30.01,South,180,16.0,16.0,83,0.00,,,0.00,TxWx,2013-03-08 21:32:00,
2013-03-08 15:33:00,71.0,66.0,30.01,SE,135,15.0,19.0,83,0.00,,,0.00,TxWx,2013-03-08 21:33:00,
2013-03-08 15:36:00,71.0,66.0,30.01,SSE,157,20.0,20.0,84,0.00,,,0.00,TxWx,2013-03-08 21:36:00,
2013-03-08 15:38:00,71.0,66.0,30.01,SE,135,15.0,15.0,84,0.00,,,0.00,TxWx,2013-03-08 21:38:00,
2013-03-08 15:39:00,71.0,66.0,30.01,ESE,112,18.0,19.0,83,0.00,,,0.00,TxWx,2013-03-08 21:39:00,
2013-03-08 15:42:00,71.0,66.0,30.01,SSE,157,19.0,19.0,83,0.00,,,0.00,TxWx,2013-03-08 21:42:00,
2013-03-08 15:44:00,71.0,66.0,30.00,East,90,13.0,19.0,83,0.00,,,0.00,TxWx,2013-03-08 21:44:00,
2013-03-08 15:47:00,71.0,66.0,30.01,SE,135,11.0,13.0,84,0.00,,,0.00,TxWx,2013-03-08 21:47:00,
2013-03-08 15:48:00,71.0,66.0,30.01,SSE,157,20.0,20.0,83,0.00,,,0.00,TxWx,2013-03-08 21:48:00,
2013-03-08 15:50:00,71.0,66.0,30.01,SSE,157,13.0,13.0,83,0.00,,,0.00,TxWx,2013-03-08 21:50:00,
2013-03-08 15:53:00,71.0,66.0,30.02,SSE,157,10.0,11.0,83,0.00,,,0.00,TxWx,2013-03-08 21:53:00,
2013-03-08 15:54:00,71.0,66.0,30.02,SSE,157,15.0,18.0,83,0.00,,,0.00,TxWx,2013-03-08 21:54:00,
2013-03-08 15:55:00,71.0,66.0,30.02,SSE,157,5.0,5.0,84,0.00,,,0.00,TxWx,2013-03-08 21:55:00,
2013-03-08 15:56:00,71.0,66.0,30.01,SE,135,14.0,15.0,84,0.00,,,0.00,TxWx,2013-03-08 21:56:00,
2013-03-08 15:59:00,71.0,66.0,30.02,SE,135,13.0,13.0,83,0.00,,,0.00,TxWx,2013-03-08 21:59:00,
2013-03-08 16:00:00,71.0,66.0,30.02,ESE,112,10.0,13.0,84,0.00,,,0.00,TxWx,2013-03-08 22:00:00,
2013-03-08 16:03:00,71.0,66.0,30.02,SE,135,10.0,10.0,84,0.00,,,0.00,TxWx,2013-03-08 22:03:00,
2013-03-08 16:04:00,71.0,66.0,30.02,SE,135,13.0,13.0,84,0.00,,,0.00,TxWx,2013-03-08 22:04:00,
2013-03-08 16:05:00,71.0,66.0,30.02,SE,135,6.0,7.0,83,0.00,,,0.00,TxWx,2013-03-08 22:05:00,
2013-03-08 16:06:00,71.0,66.0,30.02,SSE,157,6.0,7.0,84,0.00,,,0.00,TxWx,2013-03-08 22:06:00,
2013-03-08 16:09:00,71.0,66.0,30.02,SSE,157,9.0,11.0,83,0.00,,,0.00,TxWx,2013-03-08 22:09:00,
2013-03-08 16:10:00,71.0,66.0,30.02,SE,135,16.0,18.0,83,0.00,,,0.00,TxWx,2013-03-08 22:10:00,
2013-03-08 16:11:00,71.0,66.0,30.02,SSE,157,18.0,20.0,83,0.00,,,0.00,TxWx,2013-03-08 22:11:00,
2013-03-08 16:15:00,71.0,66.0,30.02,SSE,157,8.0,8.0,84,0.00,,,0.00,TxWx,2013-03-08 22:15:00,
2013-03-08 16:16:00,71.0,66.0,30.02,SE,135,8.0,9.0,84,0.00,,,0.00,TxWx,2013-03-08 22:16:00,
2013-03-08 16:17:00,70.0,65.0,30.02,SE,135,14.0,14.0,84,0.00,,,0.00,TxWx,2013-03-08 22:17:00,
2013-03-08 16:21:00,70.0,65.0,30.02,SE,135,14.0,18.0,84,0.00,,,0.00,TxWx,2013-03-08 22:21:00,
2013-03-08 16:22:00,70.0,65.0,30.02,SSE,157,18.0,18.0,84,0.00,,,0.00,TxWx,2013-03-08 22:22:00,
2013-03-08 16:27:00,70.0,65.0,30.02,SE,135,15.0,15.0,85,0.00,,,0.00,TxWx,2013-03-08 22:27:00,
2013-03-08 16:29:00,70.0,65.0,30.01,SE,135,11.0,11.0,85,0.00,,,0.00,TxWx,2013-03-08 22:29:00,
2013-03-08 16:31:00,70.0,65.0,30.01,SE,135,13.0,13.0,85,0.00,,,0.00,TxWx,2013-03-08 22:31:00,
2013-03-08 16:32:00,70.0,65.0,30.01,SE,135,13.0,13.0,86,0.00,,,0.00,TxWx,2013-03-08 22:32:00,
2013-03-08 16:34:00,70.0,65.0,30.01,SE,135,14.0,14.0,86,0.00,,,0.00,TxWx,2013-03-08 22:34:00,
2013-03-08 16:36:00,70.0,65.0,30.01,SSE,157,13.0,13.0,86,0.00,,,0.00,TxWx,2013-03-08 22:36:00,
2013-03-08 16:37:00,70.0,65.0,30.01,SE,135,9.0,11.0,86,0.00,,,0.00,TxWx,2013-03-08 22:37:00,
2013-03-08 16:39:00,70.0,66.0,30.01,ESE,112,9.0,11.0,86,0.00,,,0.00,TxWx,2013-03-08 22:39:00,
2013-03-08 16:41:00,70.0,66.0,30.00,SE,135,7.0,7.0,86,0.00,,,0.00,TxWx,2013-03-08 22:41:00,
2013-03-08 16:43:00,70.0,66.0,30.00,SE,135,10.0,16.0,86,0.00,,,0.00,TxWx,2013-03-08 22:43:00,
2013-03-08 16:44:00,70.0,66.0,30.01,SSE,157,13.0,14.0,87,0.00,,,0.00,TxWx,2013-03-08 22:44:00,
2013-03-08 16:45:00,70.0,66.0,30.01,SE,135,13.0,15.0,87,0.00,,,0.00,TxWx,2013-03-08 22:45:00,
2013-03-08 16:46:00,70.0,66.0,30.01,SE,135,8.0,8.0,87,0.00,,,0.00,TxWx,2013-03-08 22:46:00,
2013-03-08 16:48:00,69.0,65.0,30.01,SSE,157,11.0,12.0,87,0.00,,,0.00,TxWx,2013-03-08 22:48:00,
2013-03-08 16:49:00,69.0,65.0,30.01,ESE,112,12.0,12.0,87,0.00,,,0.00,TxWx,2013-03-08 22:49:00,
2013-03-08 16:50:00,69.0,65.0,30.01,SE,135,10.0,11.0,87,0.00,,,0.00,TxWx,2013-03-08 22:50:00,
2013-03-08 16:53:00,69.0,65.0,30.02,SE,135,11.0,13.0,88,0.00,,,0.00,TxWx,2013-03-08 22:53:00,
2013-03-08 16:54:00,69.0,65.0,30.02,ESE,112,8.0,8.0,88,0.00,,,0.00,TxWx,2013-03-08 22:54:00,
2013-03-08 16:57:00,69.0,65.0,30.02,SE,135,11.0,12.0,88,0.00,,,0.00,TxWx,2013-03-08 22:57:00,
2013-03-08 16:59:00,69.0,65.0,30.02,SE,135,13.0,13.0,88,0.00,,,0.00,TxWx,2013-03-08 22:59:00,
2013-03-08 17:00:00,69.0,65.0,30.02,SE,135,15.0,15.0,88,0.00,,,0.00,TxWx,2013-03-08 23:00:00,
2013-03-08 17:03:00,69.0,65.0,30.02,SE,135,11.0,12.0,89,0.00,,,0.00,TxWx,2013-03-08 23:03:00,
2013-03-08 17:04:00,68.0,64.0,30.02,SE,135,10.0,10.0,89,0.00,,,0.00,TxWx,2013-03-08 23:04:00,
2013-03-08 17:06:00,68.0,64.0,30.02,SE,135,8.0,8.0,89,0.00,,,0.00,TxWx,2013-03-08 23:06:00,
2013-03-08 17:08:00,68.0,65.0,30.02,ESE,112,7.0,7.0,89,0.00,,,0.00,TxWx,2013-03-08 23:08:00,
2013-03-08 17:09:00,68.0,65.0,30.02,ESE,112,8.0,8.0,89,0.00,,,0.00,TxWx,2013-03-08 23:09:00,
2013-03-08 17:11:00,67.0,64.0,30.02,SE,135,10.0,10.0,90,0.00,,,0.00,TxWx,2013-03-08 23:11:00,
2013-03-08 17:12:00,67.0,64.0,30.02,South,180,8.0,9.0,90,0.00,,,0.00,TxWx,2013-03-08 23:12:00,
2013-03-08 17:17:00,67.0,64.0,30.02,ESE,112,8.0,9.0,91,0.00,,,0.00,TxWx,2013-03-08 23:17:00,
2013-03-08 17:18:00,67.0,64.0,30.02,SE,135,8.0,10.0,92,0.00,,,0.00,TxWx,2013-03-08 23:18:00,
2013-03-08 17:19:00,67.0,64.0,30.01,ESE,112,6.0,7.0,92,0.00,,,0.00,TxWx,2013-03-08 23:19:00,
2013-03-08 17:23:00,67.0,65.0,30.01,East,90,10.0,10.0,92,0.00,,,0.00,TxWx,2013-03-08 23:23:00,
2013-03-08 17:24:00,67.0,65.0,30.01,SE,135,9.0,9.0,92,0.00,,,0.00,TxWx,2013-03-08 23:24:00,
2013-03-08 17:29:00,67.0,65.0,30.01,SE,135,8.0,8.0,93,0.00,,,0.00,TxWx,2013-03-08 23:29:00,
2013-03-08 17:30:00,67.0,65.0,30.01,ESE,112,8.0,8.0,93,0.00,,,0.00,TxWx,2013-03-08 23:30:00,
2013-03-08 17:34:00,67.0,65.0,30.01,SSE,157,8.0,9.0,93,0.00,,,0.00,TxWx,2013-03-08 23:34:00,
2013-03-08 17:35:00,67.0,65.0,30.01,SE,135,7.0,7.0,93,0.00,,,0.00,TxWx,2013-03-08 23:35:00,
2013-03-08 17:36:00,67.0,65.0,30.01,SE,135,11.0,11.0,93,0.00,,,0.00,TxWx,2013-03-08 23:36:00,
2013-03-08 17:37:00,67.0,65.0,30.02,East,90,7.0,7.0,94,0.00,,,0.00,TxWx,2013-03-08 23:37:00,
2013-03-08 17:40:00,67.0,65.0,30.02,SE,135,6.0,8.0,94,0.00,,,0.00,TxWx,2013-03-08 23:40:00,
2013-03-08 17:42:00,67.0,65.0,30.03,SE,135,9.0,9.0,94,0.00,,,0.00,TxWx,2013-03-08 23:42:00,
2013-03-08 17:45:00,67.0,65.0,30.02,SE,135,6.0,6.0,94,0.00,,,0.00,TxWx,2013-03-08 23:45:00,
2013-03-08 17:46:00,67.0,65.0,30.02,SE,135,8.0,8.0,94,0.00,,,0.00,TxWx,2013-03-08 23:46:00,
2013-03-08 17:47:00,67.0,65.0,30.02,SE,135,10.0,10.0,94,0.00,,,0.00,TxWx,2013-03-08 23:47:00,
2013-03-08 17:50:00,67.0,65.0,30.02,SE,135,7.0,8.0,94,0.00,,,0.00,TxWx,2013-03-08 23:50:00,
2013-03-08 17:51:00,67.0,65.0,30.02,SE,135,10.0,10.0,94,0.00,,,0.00,TxWx,2013-03-08 23:51:00,
2013-03-08 17:53:00,67.0,65.0,30.02,SE,135,11.0,11.0,94,0.00,,,0.00,TxWx,2013-03-08 23:53:00,
2013-03-08 17:56:00,67.0,65.0,30.02,ESE,112,6.0,8.0,93,0.00,,,0.00,TxWx,2013-03-08 23:56:00,
2013-03-08 18:02:00,67.0,65.0,30.02,SE,135,7.0,10.0,93,0.00,,,0.00,TxWx,2013-03-09 00:02:00,
2013-03-08 18:05:00,67.0,65.0,30.02,SE,135,7.0,8.0,93,0.00,,,0.00,TxWx,2013-03-09 00:05:00,
2013-03-08 18:07:00,67.0,65.0,30.02,SE,135,9.0,10.0,93,0.00,,,0.00,TxWx,2013-03-09 00:07:00,
2013-03-08 18:08:00,67.0,65.0,30.02,SE,135,11.0,11.0,93,0.00,,,0.00,TxWx,2013-03-09 00:08:00,
2013-03-08 18:11:00,67.0,65.0,30.02,SE,135,8.0,10.0,93,0.00,,,0.00,TxWx,2013-03-09 00:11:00,
2013-03-08 18:12:00,67.0,65.0,30.02,SE,135,10.0,10.0,93,0.00,,,0.00,TxWx,2013-03-09 00:12:00,
2013-03-08 18:14:00,68.0,66.0,30.02,SSE,157,11.0,13.0,93,0.00,,,0.00,TxWx,2013-03-09 00:14:00,
2013-03-08 18:17:00,68.0,66.0,30.02,ESE,112,10.0,12.0,93,0.00,,,0.00,TxWx,2013-03-09 00:17:00,
2013-03-08 18:19:00,68.0,66.0,30.03,SE,135,7.0,7.0,92,0.00,,,0.00,TxWx,2013-03-09 00:19:00,
2013-03-08 18:22:00,69.0,66.0,30.03,SSE,157,7.0,7.0,91,0.00,,,0.00,TxWx,2013-03-09 00:22:00,
2013-03-08 18:23:00,69.0,66.0,30.03,SSE,157,8.0,8.0,91,0.00,,,0.00,TxWx,2013-03-09 00:23:00,
2013-03-08 18:24:00,69.0,66.0,30.03,SE,135,6.0,8.0,91,0.00,,,0.00,TxWx,2013-03-09 00:24:00,
2013-03-08 18:25:00,69.0,66.0,30.03,ESE,112,13.0,14.0,91,0.00,,,0.00,TxWx,2013-03-09 00:25:00,
2013-03-08 18:29:00,69.0,66.0,30.03,SE,135,9.0,9.0,90,0.00,,,0.00,TxWx,2013-03-09 00:29:00,
2013-03-08 18:30:00,69.0,66.0,30.03,SE,135,8.0,11.0,90,0.00,,,0.00,TxWx,2013-03-09 00:30:00,
2013-03-08 18:35:00,69.0,66.0,30.03,SE,135,18.0,18.0,89,0.00,,,0.00,TxWx,2013-03-09 00:35:00,
2013-03-08 18:40:00,69.0,66.0,30.03,SSE,157,13.0,13.0,89,0.00,,,0.00,TxWx,2013-03-09 00:40:00,
2013-03-08 18:41:00,69.0,66.0,30.03,ESE,112,13.0,13.0,89,0.00,,,0.00,TxWx,2013-03-09 00:41:00,
2013-03-08 18:45:00,69.0,66.0,30.03,South,180,6.0,7.0,89,0.00,,,0.00,TxWx,2013-03-09 00:45:00,
2013-03-08 18:46:00,69.0,66.0,30.03,SE,135,10.0,10.0,89,0.00,,,0.00,TxWx,2013-03-09 00:46:00,
2013-03-08 18:51:00,69.0,65.0,30.03,SE,135,11.0,11.0,89,0.00,,,0.00,TxWx,2013-03-09 00:51:00,
2013-03-08 18:52:00,69.0,65.0,30.03,SSE,157,8.0,9.0,89,0.00,,,0.00,TxWx,2013-03-09 00:52:00,
2013-03-08 18:55:00,69.0,65.0,30.03,SE,135,8.0,8.0,89,0.00,,,0.00,TxWx,2013-03-09 00:55:00,
2013-03-08 18:57:00,69.0,65.0,30.02,SE,135,13.0,13.0,89,0.00,,,0.00,TxWx,2013-03-09 00:57:00,
2013-03-08 18:58:00,69.0,65.0,30.02,SE,135,11.0,11.0,89,0.00,,,0.00,TxWx,2013-03-09 00:58:00,
2013-03-08 19:02:00,69.0,65.0,30.02,SSE,157,10.0,11.0,89,0.00,,,0.00,TxWx,2013-03-09 01:02:00,
2013-03-08 19:03:00,69.0,65.0,30.02,SSE,157,10.0,10.0,89,0.00,,,0.00,TxWx,2013-03-09 01:03:00,
2013-03-08 19:08:00,69.0,66.0,30.02,SE,135,12.0,12.0,89,0.00,,,0.00,TxWx,2013-03-09 01:08:00,
2013-03-08 19:13:00,69.0,66.0,30.01,SE,135,11.0,11.0,89,0.00,,,0.00,TxWx,2013-03-09 01:13:00,
2013-03-08 19:15:00,69.0,66.0,30.01,ESE,112,8.0,10.0,89,0.00,,,0.00,TxWx,2013-03-09 01:15:00,
2013-03-08 19:19:00,68.0,65.0,30.01,SE,135,8.0,12.0,90,0.00,,,0.00,TxWx,2013-03-09 01:19:00,
2013-03-08 19:20:00,68.0,65.0,30.01,SE,135,16.0,16.0,90,0.00,,,0.00,TxWx,2013-03-09 01:20:00,
2013-03-08 19:22:00,68.0,65.0,30.00,SE,135,11.0,12.0,90,0.00,,,0.00,TxWx,2013-03-09 01:22:00,
2013-03-08 19:24:00,68.0,65.0,30.00,ESE,112,9.0,9.0,90,0.00,,,0.00,TxWx,2013-03-09 01:24:00,
2013-03-08 19:25:00,68.0,65.0,30.00,SE,135,7.0,8.0,90,0.00,,,0.00,TxWx,2013-03-09 01:25:00,
2013-03-08 19:29:00,68.0,65.0,30.00,SE,135,8.0,9.0,91,0.00,,,0.00,TxWx,2013-03-09 01:29:00,
2013-03-08 19:30:00,68.0,65.0,30.00,SE,135,9.0,10.0,91,0.00,,,0.00,TxWx,2013-03-09 01:30:00,
2013-03-08 19:31:00,68.0,65.0,30.00,SSE,157,11.0,14.0,91,0.00,,,0.00,TxWx,2013-03-09 01:31:00,
2013-03-08 19:35:00,68.0,65.0,30.00,SE,135,12.0,13.0,91,0.00,,,0.00,TxWx,2013-03-09 01:35:00,
2013-03-08 19:36:00,68.0,65.0,30.00,SE,135,13.0,13.0,91,0.00,,,0.00,TxWx,2013-03-09 01:36:00,
2013-03-08 19:37:00,68.0,65.0,30.00,SE,135,13.0,13.0,91,0.00,,,0.00,TxWx,2013-03-09 01:37:00,
2013-03-08 19:40:00,68.0,65.0,30.00,South,180,6.0,6.0,91,0.00,,,0.00,TxWx,2013-03-09 01:40:00,
2013-03-08 19:42:00,68.0,65.0,30.00,SSE,157,15.0,15.0,91,0.00,,,0.00,TxWx,2013-03-09 01:42:00,
2013-03-08 19:46:00,68.0,65.0,30.00,SE,135,11.0,11.0,91,0.00,,,0.00,TxWx,2013-03-09 01:46:00,
2013-03-08 19:47:00,68.0,65.0,30.00,SE,135,8.0,11.0,91,0.00,,,0.00,TxWx,2013-03-09 01:47:00,
2013-03-08 19:50:00,68.0,65.0,30.00,South,180,12.0,12.0,91,0.00,,,0.00,TxWx,2013-03-09 01:50:00,
2013-03-08 19:52:00,68.0,65.0,30.00,South,180,12.0,15.0,90,0.00,,,0.00,TxWx,2013-03-09 01:52:00,
2013-03-08 19:53:00,68.0,65.0,30.01,SE,135,12.0,13.0,90,0.00,,,0.00,TxWx,2013-03-09 01:53:00,
2013-03-08 19:55:00,69.0,66.0,30.01,SSE,157,9.0,9.0,90,0.00,,,0.00,TxWx,2013-03-09 01:55:00,
2013-03-08 19:57:00,69.0,66.0,30.01,ESE,112,6.0,6.0,90,0.00,,,0.00,TxWx,2013-03-09 01:57:00,
2013-03-08 19:58:00,69.0,66.0,30.01,SSE,157,14.0,16.0,90,0.00,,,0.00,TxWx,2013-03-09 01:58:00,
2013-03-08 20:01:00,69.0,66.0,30.01,South,180,11.0,11.0,90,0.00,,,0.00,TxWx,2013-03-09 02:01:00,
2013-03-08 20:03:00,69.0,66.0,30.01,SSE,157,6.0,7.0,90,0.00,,,0.00,TxWx,2013-03-09 02:03:00,
2013-03-08 20:04:00,69.0,66.0,30.01,SE,135,11.0,11.0,90,0.00,,,0.00,TxWx,2013-03-09 02:04:00,
2013-03-08 20:06:00,69.0,66.0,30.01,South,180,13.0,13.0,90,0.00,,,0.00,TxWx,2013-03-09 02:06:00,
2013-03-08 20:07:00,69.0,66.0,30.01,SSW,202,5.0,7.0,90,0.00,,,0.00,TxWx,2013-03-09 02:07:00,
2013-03-08 20:10:00,69.0,66.0,30.01,SE,135,11.0,11.0,90,0.00,,,0.00,TxWx,2013-03-09 02:10:00,
2013-03-08 20:11:00,69.0,66.0,30.01,SE,135,14.0,16.0,90,0.00,,,0.00,TxWx,2013-03-09 02:11:00,
2013-03-08 20:12:00,69.0,66.0,30.01,SSE,157,10.0,10.0,90,0.00,,,0.00,TxWx,2013-03-09 02:12:00,
2013-03-08 20:13:00,69.0,66.0,30.01,SE,135,14.0,14.0,90,0.00,,,0.00,TxWx,2013-03-09 02:13:00,
2013-03-08 20:16:00,69.0,66.0,30.01,SSE,157,11.0,12.0,90,0.00,,,0.00,TxWx,2013-03-09 02:16:00,
2013-03-08 20:18:00,69.0,66.0,30.01,South,180,11.0,11.0,90,0.00,,,0.00,TxWx,2013-03-09 02:18:00,
2013-03-08 20:19:00,69.0,66.0,30.01,SSE,157,14.0,14.0,90,0.00,,,0.00,TxWx,2013-03-09 02:19:00,
2013-03-08 20:22:00,69.0,66.0,30.01,ESE,112,11.0,11.0,90,0.00,,,0.00,TxWx,2013-03-09 02:22:00,
2013-03-08 20:24:00,69.0,66.0,30.01,SE,135,11.0,11.0,90,0.00,,,0.00,TxWx,2013-03-09 02:24:00,
2013-03-08 20:27:00,69.0,66.0,30.01,ESE,112,13.0,14.0,90,0.00,,,0.00,TxWx,2013-03-09 02:27:00,
2013-03-08 20:28:00,69.0,66.0,30.01,SE,135,13.0,15.0,90,0.00,,,0.00,TxWx,2013-03-09 02:28:00,
2013-03-08 20:29:00,69.0,66.0,30.01,SE,135,13.0,14.0,90,0.00,,,0.00,TxWx,2013-03-09 02:29:00,
2013-03-08 20:33:00,69.0,66.0,30.01,South,180,16.0,16.0,90,0.00,,,0.00,TxWx,2013-03-09 02:33:00,
2013-03-08 20:34:00,69.0,66.0,30.01,SE,135,15.0,15.0,90,0.00,,,0.00,TxWx,2013-03-09 02:34:00,
2013-03-08 20:39:00,69.0,66.0,30.01,South,180,9.0,9.0,89,0.00,,,0.00,TxWx,2013-03-09 02:39:00,
2013-03-08 20:40:00,69.0,66.0,30.01,SE,135,10.0,10.0,89,0.00,,,0.00,TxWx,2013-03-09 02:40:00,
2013-03-08 20:42:00,69.0,66.0,30.01,SE,135,8.0,10.0,89,0.00,,,0.00,TxWx,2013-03-09 02:42:00,
2013-03-08 20:45:00,69.0,66.0,30.01,SE,135,10.0,10.0,89,0.00,,,0.00,TxWx,2013-03-09 02:45:00,
2013-03-08 20:46:00,69.0,66.0,30.01,SSE,157,12.0,13.0,89,0.00,,,0.00,TxWx,2013-03-09 02:46:00,
2013-03-08 20:47:00,69.0,66.0,30.01,SSE,157,10.0,11.0,89,0.00,,,0.00,TxWx,2013-03-09 02:47:00,
2013-03-08 20:51:00,69.0,66.0,30.01,SE,135,11.0,11.0,89,0.00,,,0.00,TxWx,2013-03-09 02:51:00,
2013-03-08 20:52:00,69.0,66.0,30.01,SE,135,13.0,14.0,89,0.00,,,0.00,TxWx,2013-03-09 02:52:00,
2013-03-08 20:53:00,69.0,66.0,30.02,ESE,112,9.0,9.0,89,0.00,,,0.00,TxWx,2013-03-09 02:53:00,
2013-03-08 20:56:00,69.0,65.0,30.01,SSE,157,12.0,12.0,89,0.00,,,0.00,TxWx,2013-03-09 02:56:00,
2013-03-08 20:59:00,69.0,65.0,30.01,SE,135,6.0,8.0,89,0.00,,,0.00,TxWx,2013-03-09 02:59:00,
2013-03-08 21:00:00,69.0,65.0,30.01,SE,135,7.0,8.0,89,0.00,,,0.00,TxWx,2013-03-09 03:00:00,
2013-03-08 21:01:00,69.0,65.0,30.01,SE,135,9.0,10.0,89,0.00,,,0.00,TxWx,2013-03-09 03:01:00,
2013-03-08 21:04:00,69.0,65.0,30.01,SSE,157,13.0,15.0,89,0.00,,,0.00,TxWx,2013-03-09 03:04:00,
2013-03-08 21:06:00,69.0,65.0,30.01,SSE,157,8.0,8.0,89,0.00,,,0.00,TxWx,2013-03-09 03:06:00,
2013-03-08 21:10:00,69.0,65.0,30.01,SSE,157,6.0,8.0,89,0.00,,,0.00,TxWx,2013-03-09 03:10:00,
2013-03-08 21:11:00,69.0,65.0,30.01,SSE,157,10.0,10.0,89,0.00,,,0.00,TxWx,2013-03-09 03:11:00,
2013-03-08 21:16:00,69.0,65.0,30.01,SE,135,16.0,16.0,88,0.00,,,0.00,TxWx,2013-03-09 03:16:00,
2013-03-08 21:17:00,69.0,65.0,30.01,South,180,7.0,9.0,88,0.00,,,0.00,TxWx,2013-03-09 03:17:00,
2013-03-08 21:21:00,69.0,65.0,30.00,SSE,157,6.0,8.0,88,0.00,,,0.00,TxWx,2013-03-09 03:21:00,
2013-03-08 21:22:00,69.0,65.0,30.00,South,180,10.0,10.0,88,0.00,,,0.00,TxWx,2013-03-09 03:22:00,
2013-03-08 21:23:00,69.0,65.0,30.00,South,180,13.0,13.0,88,0.00,,,0.00,TxWx,2013-03-09 03:23:00,
2013-03-08 21:27:00,69.0,65.0,30.00,SSE,157,18.0,18.0,88,0.00,,,0.00,TxWx,2013-03-09 03:27:00,
2013-03-08 21:28:00,69.0,65.0,30.00,SSE,157,13.0,14.0,88,0.00,,,0.00,TxWx,2013-03-09 03:28:00,
2013-03-08 21:30:00,69.0,65.0,30.00,SSE,157,5.0,6.0,88,0.00,,,0.00,TxWx,2013-03-09 03:30:00,
2013-03-08 21:32:00,69.0,65.0,30.00,SSE,157,11.0,13.0,88,0.00,,,0.00,TxWx,2013-03-09 03:32:00,
2013-03-08 21:33:00,69.0,65.0,30.00,SSE,157,14.0,14.0,88,0.00,,,0.00,TxWx,2013-03-09 03:33:00,
2013-03-08 21:36:00,69.0,65.0,30.00,SSE,157,7.0,10.0,88,0.00,,,0.00,TxWx,2013-03-09 03:36:00,
2013-03-08 21:38:00,69.0,65.0,30.00,SE,135,9.0,11.0,88,0.00,,,0.00,TxWx,2013-03-09 03:38:00,
2013-03-08 21:40:00,69.0,65.0,30.00,South,180,18.0,18.0,88,0.00,,,0.00,TxWx,2013-03-09 03:40:00,
2013-03-08 21:42:00,69.0,65.0,30.01,SSE,157,11.0,11.0,88,0.00,,,0.00,TxWx,2013-03-09 03:42:00,
2013-03-08 21:43:00,69.0,65.0,30.01,SE,135,6.0,6.0,88,0.00,,,0.00,TxWx,2013-03-09 03:43:00,
2013-03-08 21:45:00,69.0,65.0,30.01,SSE,157,14.0,16.0,88,0.00,,,0.00,TxWx,2013-03-09 03:45:00,
2013-03-08 21:48:00,69.0,65.0,30.01,SE,135,11.0,11.0,88,0.00,,,0.00,TxWx,2013-03-09 03:48:00,
2013-03-08 21:49:00,69.0,65.0,30.01,SSE,157,12.0,12.0,88,0.00,,,0.00,TxWx,2013-03-09 03:49:00,
2013-03-08 21:51:00,69.0,65.0,30.01,SSE,157,9.0,9.0,88,0.00,,,0.00,TxWx,2013-03-09 03:51:00,
2013-03-08 21:53:00,69.0,65.0,30.01,South,180,8.0,8.0,88,0.00,,,0.00,TxWx,2013-03-09 03:53:00,
2013-03-08 21:55:00,69.0,65.0,30.01,South,180,9.0,9.0,88,0.00,,,0.00,TxWx,2013-03-09 03:55:00,
2013-03-08 21:58:00,69.0,65.0,30.01,SSW,202,8.0,9.0,88,0.00,,,0.00,TxWx,2013-03-09 03:58:00,
2013-03-08 21:59:00,69.0,66.0,30.01,SSE,157,10.0,10.0,89,0.00,,,0.00,TxWx,2013-03-09 03:59:00,
2013-03-08 22:00:00,69.0,66.0,30.01,SSE,157,12.0,12.0,89,0.00,,,0.00,TxWx,2013-03-09 04:00:00,
2013-03-08 22:01:00,69.0,65.0,30.01,SSW,202,13.0,14.0,88,0.00,,,0.00,TxWx,2013-03-09 04:01:00,
2013-03-08 22:02:00,69.0,66.0,30.01,SSW,202,14.0,14.0,89,0.00,,,0.00,TxWx,2013-03-09 04:02:00,
2013-03-08 22:03:00,69.0,65.0,30.01,South,180,13.0,14.0,88,0.00,,,0.00,TxWx,2013-03-09 04:03:00,
2013-03-08 22:04:00,69.0,66.0,30.01,ESE,112,8.0,9.0,89,0.00,,,0.00,TxWx,2013-03-09 04:04:00,
2013-03-08 22:05:00,69.0,65.0,30.01,SSE,157,8.0,8.0,87,0.00,,,0.00,TxWx,2013-03-09 04:05:00,
2013-03-08 22:06:00,69.0,66.0,30.01,South,180,11.0,12.0,89,0.00,,,0.00,TxWx,2013-03-09 04:06:00,
2013-03-08 22:07:00,69.0,66.0,30.01,SE,135,5.0,5.0,89,0.00,,,0.00,TxWx,2013-03-09 04:07:00,
2013-03-08 22:08:00,69.0,65.0,30.01,South,180,8.0,10.0,87,0.00,,,0.00,TxWx,2013-03-09 04:08:00,
2013-03-08 22:09:00,69.0,65.0,30.01,South,180,8.0,11.0,87,0.00,,,0.00,TxWx,2013-03-09 04:09:00,
2013-03-08 22:10:00,69.0,66.0,30.01,South,180,10.0,10.0,89,0.00,,,0.00,TxWx,2013-03-09 04:10:00,
2013-03-08 22:11:00,69.0,65.0,30.01,SSE,157,13.0,14.0,87,0.00,,,0.00,TxWx,2013-03-09 04:11:00,
2013-03-08 22:12:00,69.0,66.0,30.01,South,180,12.0,12.0,89,0.00,,,0.00,TxWx,2013-03-09 04:12:00,
2013-03-08 22:13:00,69.0,65.0,30.01,South,180,16.0,16.0,87,0.00,,,0.00,TxWx,2013-03-09 04:13:00,
2013-03-08 22:14:00,69.0,65.0,30.01,SE,135,7.0,9.0,87,0.00,,,0.00,TxWx,2013-03-09 04:14:00,
2013-03-08 22:15:00,69.0,66.0,30.01,South,180,9.0,10.0,89,0.00,,,0.00,TxWx,2013-03-09 04:15:00,
2013-03-08 22:16:00,69.0,65.0,30.01,SE,135,13.0,17.0,87,0.00,,,0.00,TxWx,2013-03-09 04:16:00,
2013-03-08 22:17:00,69.0,66.0,30.01,SSE,157,11.0,11.0,89,0.00,,,0.00,TxWx,2013-03-09 04:17:00,
2013-03-08 22:18:00,69.0,66.0,30.01,SSE,157,13.0,13.0,89,0.00,,,0.00,TxWx,2013-03-09 04:18:00,
2013-03-08 22:19:00,69.0,66.0,30.01,SE,135,8.0,8.0,89,0.00,,,0.00,TxWx,2013-03-09 04:19:00,
2013-03-08 22:20:00,69.0,65.0,30.01,South,180,10.0,11.0,88,0.00,,,0.00,TxWx,2013-03-09 04:20:00,
2013-03-08 22:21:00,69.0,66.0,30.01,SSW,202,6.0,10.0,90,0.00,,,0.00,TxWx,2013-03-09 04:21:00,
2013-03-08 22:22:00,69.0,66.0,30.01,SE,135,15.0,16.0,90,0.00,,,0.00,TxWx,2013-03-09 04:22:00,
2013-03-08 22:23:00,69.0,65.0,30.01,South,180,13.0,13.0,88,0.00,,,0.00,TxWx,2013-03-09 04:23:00,
2013-03-08 22:25:00,69.0,65.0,30.01,South,180,11.0,11.0,88,0.00,,,0.00,TxWx,2013-03-09 04:25:00,
2013-03-08 22:26:00,69.0,65.0,30.01,South,180,15.0,15.0,88,0.00,,,0.00,TxWx,2013-03-09 04:26:00,
2013-03-08 22:28:00,69.0,65.0,30.01,SSE,157,13.0,16.0,88,0.00,,,0.00,TxWx,2013-03-09 04:28:00,
2013-03-08 22:29:00,69.0,66.0,30.00,SSE,157,4.0,4.0,90,0.00,,,0.00,TxWx,2013-03-09 04:29:00,
2013-03-08 22:30:00,69.0,65.0,30.01,SSE,157,14.0,14.0,88,0.00,,,0.00,TxWx,2013-03-09 04:30:00,
2013-03-08 22:31:00,69.0,65.0,30.00,South,180,11.0,15.0,88,0.00,,,0.00,TxWx,2013-03-09 04:31:00,
2013-03-08 22:33:00,69.0,66.0,30.00,South,180,13.0,14.0,90,0.00,,,0.00,TxWx,2013-03-09 04:33:00,
2013-03-08 22:34:00,69.0,66.0,30.00,South,180,11.0,11.0,90,0.00,,,0.00,TxWx,2013-03-09 04:34:00,
2013-03-08 22:35:00,69.0,66.0,30.00,South,180,7.0,8.0,90,0.00,,,0.00,TxWx,2013-03-09 04:35:00,
2013-03-08 22:36:00,69.0,65.0,30.01,South,180,5.0,6.0,88,0.00,,,0.00,TxWx,2013-03-09 04:36:00,
2013-03-08 22:38:00,69.0,65.0,30.01,ESE,112,9.0,9.0,89,0.00,,,0.00,TxWx,2013-03-09 04:38:00,
2013-03-08 22:42:00,69.0,65.0,30.00,SSW,202,13.0,13.0,89,0.00,,,0.00,TxWx,2013-03-09 04:42:00,
2013-03-08 22:43:00,69.0,65.0,30.00,SSE,157,8.0,8.0,89,0.00,,,0.00,TxWx,2013-03-09 04:43:00,
2013-03-08 22:45:00,69.0,65.0,30.00,SE,135,9.0,9.0,89,0.00,,,0.00,TxWx,2013-03-09 04:45:00,
2013-03-08 22:47:00,69.0,65.0,30.01,SSE,157,9.0,9.0,89,0.00,,,0.00,TxWx,2013-03-09 04:47:00,
2013-03-08 22:48:00,69.0,65.0,30.00,South,180,14.0,16.0,89,0.00,,,0.00,TxWx,2013-03-09 04:48:00,
2013-03-08 22:49:00,69.0,65.0,30.00,SW,225,10.0,12.0,89,0.00,,,0.00,TxWx,2013-03-09 04:49:00,
2013-03-08 22:51:00,69.0,65.0,30.00,SSE,157,8.0,11.0,89,0.00,,,0.00,TxWx,2013-03-09 04:51:00,
2013-03-08 22:55:00,69.0,66.0,30.00,SSE,157,8.0,10.0,89,0.00,,,0.00,TxWx,2013-03-09 04:55:00,
2013-03-08 22:56:00,69.0,66.0,30.00,SSW,202,9.0,10.0,89,0.00,,,0.00,TxWx,2013-03-09 04:56:00,
2013-03-08 22:58:00,69.0,66.0,30.01,South,180,16.0,16.0,89,0.00,,,0.00,TxWx,2013-03-09 04:58:00,
2013-03-08 23:22:00,69.0,66.0,30.01,South,180,14.0,14.0,90,0.00,,,0.00,TxWx,2013-03-09 05:22:00,
2013-03-08 23:26:00,69.0,66.0,30.01,SSE,157,9.0,10.0,90,0.00,,,0.00,TxWx,2013-03-09 05:26:00,
2013-03-08 23:28:00,69.0,66.0,30.00,South,180,6.0,8.0,90,0.00,,,0.00,TxWx,2013-03-09 05:28:00,
2013-03-08 23:32:00,69.0,66.0,30.00,South,180,10.0,10.0,90,0.00,,,0.00,TxWx,2013-03-09 05:32:00,
2013-03-08 23:34:00,69.0,66.0,30.00,SSE,157,6.0,6.0,90,0.00,,,0.00,TxWx,2013-03-09 05:34:00,
2013-03-08 23:37:00,69.0,66.0,30.00,South,180,9.0,10.0,90,0.00,,,0.00,TxWx,2013-03-09 05:37:00,
2013-03-08 23:38:00,69.0,66.0,30.00,South,180,6.0,6.0,90,0.00,,,0.00,TxWx,2013-03-09 05:38:00,
2013-03-08 23:41:00,69.0,66.0,30.00,South,180,13.0,13.0,90,0.00,,,0.00,TxWx,2013-03-09 05:41:00,
2013-03-08 23:42:00,69.0,66.0,30.00,SSE,157,13.0,13.0,90,0.00,,,0.00,TxWx,2013-03-09 05:42:00,
2013-03-08 23:44:00,69.0,66.0,30.00,SSE,157,11.0,11.0,90,0.00,,,0.00,TxWx,2013-03-09 05:44:00,
2013-03-08 23:45:00,69.0,66.0,30.00,SSE,157,11.0,11.0,91,0.00,,,0.00,TxWx,2013-03-09 05:45:00,
2013-03-08 23:46:00,69.0,66.0,29.99,SSE,157,6.0,7.0,91,0.00,,,0.00,TxWx,2013-03-09 05:46:00,
2013-03-08 23:48:00,69.0,66.0,29.99,South,180,12.0,12.0,91,0.00,,,0.00,TxWx,2013-03-09 05:48:00,
2013-03-08 23:50:00,69.0,66.0,29.99,SE,135,10.0,10.0,91,0.00,,,0.00,TxWx,2013-03-09 05:50:00,
2013-03-08 23:51:00,69.0,66.0,29.99,South,180,13.0,13.0,91,0.00,,,0.00,TxWx,2013-03-09 05:51:00,
2013-03-08 23:52:00,69.0,66.0,29.99,SSE,157,13.0,13.0,91,0.00,,,0.00,TxWx,2013-03-09 05:52:00,
2013-03-08 23:54:00,69.0,66.0,29.99,SSW,202,5.0,6.0,91,0.00,,,0.00,TxWx,2013-03-09 05:54:00,
2013-03-08 23:55:00,69.0,66.0,29.99,SSE,157,11.0,11.0,91,0.00,,,0.00,TxWx,2013-03-09 05:55:00,
2013-03-08 23:57:00,69.0,66.0,29.99,SE,135,14.0,15.0,91,0.00,,,0.00,TxWx,2013-03-09 05:57:00,